Time,TemperatureF,DewpointF,PressureIn,WindDirection,WindDirectionDegrees,WindSpeedMPH,WindSpeedGustMPH,Humidity,HourlyPrecipIn,Conditions,Clouds,dailyrainin,SoftwareType,DateUTC
2013-09-21 00:00:00,64.9,51.2,29.97,NNW,342,3.1,4.0,61,0.00,,---,0.00,VWS V14.01,2013-09-21 04:00:00,
2013-09-21 00:01:00,64.9,51.2,29.97,NNW,342,3.1,4.0,61,0.00,,---,0.00,VWS V14.01,2013-09-21 04:01:00,
2013-09-21 00:02:00,64.9,51.2,29.97,NNW,342,3.1,3.1,61,0.00,,---,0.00,VWS V14.01,2013-09-21 04:02:00,
2013-09-21 00:06:00,64.9,51.6,29.97,NNW,342,2.7,2.7,62,0.00,,---,0.00,VWS V14.01,2013-09-21 04:06:00,
2013-09-21 00:07:00,64.9,51.6,29.97,North,353,0.0,2.7,62,0.00,,---,0.00,VWS V14.01,2013-09-21 04:07:00,
2013-09-21 00:11:00,64.9,51.6,29.97,NNW,344,0.0,0.0,62,0.00,,---,0.00,VWS V14.01,2013-09-21 04:11:00,
2013-09-21 00:12:00,64.9,51.2,29.97,NNE,15,3.1,3.1,61,0.00,,---,0.00,VWS V14.01,2013-09-21 04:12:00,
2013-09-21 00:16:00,64.9,51.2,29.97,North,0,0.0,0.0,61,0.00,,---,0.00,VWS V14.01,2013-09-21 04:16:00,
2013-09-21 00:17:00,65.1,51.3,29.97,North,0,0.0,0.0,61,0.00,,---,0.00,VWS V14.01,2013-09-21 04:17:00,
2013-09-21 00:21:00,65.1,51.3,29.97,North,7,0.0,0.0,61,0.00,,---,0.00,VWS V14.01,2013-09-21 04:21:00,
2013-09-21 00:22:00,65.1,51.3,29.97,North,357,0.0,0.0,61,0.00,,---,0.00,VWS V14.01,2013-09-21 04:22:00,
2013-09-21 00:26:00,65.1,51.3,29.97,North,357,0.0,0.0,61,0.00,,---,0.00,VWS V14.01,2013-09-21 04:26:00,
2013-09-21 00:27:00,65.1,51.3,29.97,North,357,0.0,0.0,61,0.00,,---,0.00,VWS V14.01,2013-09-21 04:27:00,
2013-09-21 00:31:00,65.1,51.3,29.97,North,353,0.0,0.0,61,0.00,,---,0.00,VWS V14.01,2013-09-21 04:31:00,
2013-09-21 00:33:00,64.9,51.2,29.97,NNW,343,0.0,0.0,61,0.00,,---,0.00,VWS V14.01,2013-09-21 04:33:00,
2013-09-21 00:36:00,64.9,51.2,29.97,NNW,332,0.0,0.0,61,0.00,,---,0.00,VWS V14.01,2013-09-21 04:36:00,
2013-09-21 00:37:00,64.9,51.2,29.97,NNW,332,0.0,0.0,61,0.00,,---,0.00,VWS V14.01,2013-09-21 04:37:00,
2013-09-21 00:38:00,64.9,51.2,29.97,NW,326,0.0,0.0,61,0.00,,---,0.00,VWS V14.01,2013-09-21 04:38:00,
2013-09-21 00:41:00,64.9,51.2,29.97,North,2,0.0,0.0,61,0.00,,---,0.00,VWS V14.01,2013-09-21 04:41:00,
2013-09-21 00:42:00,64.9,51.2,29.97,North,2,0.0,0.0,61,0.00,,---,0.00,VWS V14.01,2013-09-21 04:42:00,
2013-09-21 00:43:00,64.9,51.2,29.97,North,2,0.0,0.0,61,0.00,,---,0.00,VWS V14.01,2013-09-21 04:43:00,
2013-09-21 00:46:00,64.9,51.2,29.97,NNE,20,3.1,3.1,61,0.00,,---,0.00,VWS V14.01,2013-09-21 04:46:00,
2013-09-21 00:47:00,64.9,51.2,29.97,NNE,20,0.0,3.1,61,0.00,,---,0.00,VWS V14.01,2013-09-21 04:47:00,
2013-09-21 00:48:00,64.9,51.2,29.97,NNE,27,0.0,0.0,61,0.00,,---,0.00,VWS V14.01,2013-09-21 04:48:00,
2013-09-21 00:51:00,64.8,51.0,29.97,NNW,339,0.0,0.0,61,0.00,,---,0.00,VWS V14.01,2013-09-21 04:51:00,
2013-09-21 00:52:00,64.8,51.0,29.97,NNE,14,3.6,3.6,61,0.00,,---,0.00,VWS V14.01,2013-09-21 04:52:00,
2013-09-21 00:53:00,64.9,51.6,29.97,NNE,16,0.0,3.6,62,0.00,,---,0.00,VWS V14.01,2013-09-21 04:53:00,
2013-09-21 00:56:00,64.9,51.6,29.97,NW,319,0.0,2.7,62,0.00,,---,0.00,VWS V14.01,2013-09-21 04:56:00,
2013-09-21 00:57:00,64.9,51.6,29.97,NNE,13,0.0,0.0,62,0.00,,---,0.00,VWS V14.01,2013-09-21 04:57:00,
2013-09-21 00:58:00,64.9,51.6,29.97,NNW,328,0.0,0.0,62,0.00,,---,0.00,VWS V14.01,2013-09-21 04:58:00,
2013-09-21 01:01:00,65.1,51.8,29.97,NNW,332,0.0,0.0,62,0.00,,---,0.00,VWS V14.01,2013-09-21 05:01:00,
2013-09-21 01:02:00,65.1,51.8,29.97,NNW,332,0.0,0.0,62,0.00,,---,0.00,VWS V14.01,2013-09-21 05:02:00,
2013-09-21 01:03:00,65.1,51.8,29.97,NNW,332,0.0,0.0,62,0.00,,---,0.00,VWS V14.01,2013-09-21 05:03:00,
2013-09-21 01:06:00,65.1,51.8,29.97,NNW,332,0.0,0.0,62,0.00,,---,0.00,VWS V14.01,2013-09-21 05:06:00,
2013-09-21 01:07:00,65.1,51.8,29.97,NNW,332,0.0,0.0,62,0.00,,---,0.00,VWS V14.01,2013-09-21 05:07:00,
2013-09-21 01:08:00,65.1,51.8,29.97,NNW,332,0.0,0.0,62,0.00,,---,0.00,VWS V14.01,2013-09-21 05:08:00,
2013-09-21 01:11:00,65.1,51.8,29.97,NNW,332,0.0,0.0,62,0.00,,---,0.00,VWS V14.01,2013-09-21 05:11:00,
2013-09-21 01:12:00,65.1,51.8,29.97,NNW,332,0.0,0.0,62,0.00,,---,0.00,VWS V14.01,2013-09-21 05:12:00,
2013-09-21 01:13:00,65.1,51.8,29.97,NNW,332,0.0,0.0,62,0.00,,---,0.00,VWS V14.01,2013-09-21 05:13:00,
2013-09-21 01:16:00,65.3,52.0,29.97,NNW,332,0.0,0.0,62,0.00,,---,0.00,VWS V14.01,2013-09-21 05:16:00,
2013-09-21 01:17:00,65.3,52.0,29.97,NNW,332,0.0,0.0,62,0.00,,---,0.00,VWS V14.01,2013-09-21 05:17:00,
2013-09-21 01:18:00,65.3,52.0,29.97,NNW,332,0.0,0.0,62,0.00,,---,0.00,VWS V14.01,2013-09-21 05:18:00,
2013-09-21 01:21:00,65.3,52.0,29.97,NNW,346,0.0,0.0,62,0.00,,---,0.00,VWS V14.01,2013-09-21 05:21:00,
2013-09-21 01:22:00,65.3,52.0,29.97,NNW,346,0.0,0.0,62,0.00,,---,0.00,VWS V14.01,2013-09-21 05:22:00,
2013-09-21 01:23:00,65.3,52.0,29.97,NNW,346,0.0,0.0,62,0.00,,---,0.00,VWS V14.01,2013-09-21 05:23:00,
2013-09-21 01:26:00,65.3,52.0,29.97,North,1,0.0,0.0,62,0.00,,---,0.00,VWS V14.01,2013-09-21 05:26:00,
2013-09-21 01:27:00,65.3,52.0,29.97,North,1,0.0,0.0,62,0.00,,---,0.00,VWS V14.01,2013-09-21 05:27:00,
2013-09-21 01:28:00,65.3,52.0,29.97,North,0,3.6,3.6,62,0.00,,---,0.00,VWS V14.01,2013-09-21 05:28:00,
2013-09-21 01:31:00,65.3,52.0,29.97,North,0,0.0,0.0,62,0.00,,---,0.00,VWS V14.01,2013-09-21 05:31:00,
2013-09-21 01:32:00,65.3,52.0,29.97,North,0,0.0,0.0,62,0.00,,---,0.00,VWS V14.01,2013-09-21 05:32:00,
2013-09-21 01:33:00,65.3,52.0,29.97,North,0,0.0,0.0,62,0.00,,---,0.00,VWS V14.01,2013-09-21 05:33:00,
2013-09-21 01:36:00,65.5,52.1,29.97,North,0,0.0,0.0,62,0.00,,---,0.00,VWS V14.01,2013-09-21 05:36:00,
2013-09-21 01:37:00,65.5,52.1,29.97,North,0,0.0,0.0,62,0.00,,---,0.00,VWS V14.01,2013-09-21 05:37:00,
2013-09-21 01:38:00,65.5,52.1,29.97,North,0,0.0,0.0,62,0.00,,---,0.00,VWS V14.01,2013-09-21 05:38:00,
2013-09-21 01:39:00,65.5,52.1,29.97,North,0,0.0,0.0,62,0.00,,---,0.00,VWS V14.01,2013-09-21 05:39:00,
2013-09-21 01:41:00,65.5,52.1,29.97,North,0,0.0,0.0,62,0.00,,---,0.00,VWS V14.01,2013-09-21 05:41:00,
2013-09-21 01:42:00,65.5,52.1,29.97,North,353,0.0,0.0,62,0.00,,---,0.00,VWS V14.01,2013-09-21 05:42:00,
2013-09-21 01:43:00,65.5,52.1,29.97,North,353,0.0,0.0,62,0.00,,---,0.00,VWS V14.01,2013-09-21 05:43:00,
2013-09-21 01:44:00,65.5,52.1,29.97,North,353,0.0,0.0,62,0.00,,---,0.00,VWS V14.01,2013-09-21 05:44:00,
2013-09-21 01:46:00,65.7,52.3,29.97,NNE,13,2.2,2.7,62,0.00,,---,0.00,VWS V14.01,2013-09-21 05:46:00,
2013-09-21 01:47:00,65.7,52.3,29.97,NNE,13,0.0,2.2,62,0.00,,---,0.00,VWS V14.01,2013-09-21 05:47:00,
2013-09-21 01:48:00,65.7,52.3,29.97,NNE,13,0.0,0.0,62,0.00,,---,0.00,VWS V14.01,2013-09-21 05:48:00,
2013-09-21 01:49:00,65.7,52.3,29.97,NNE,13,0.0,0.0,62,0.00,,---,0.00,VWS V14.01,2013-09-21 05:49:00,
2013-09-21 01:51:00,65.7,52.7,29.97,NE,34,3.6,3.6,63,0.00,,---,0.00,VWS V14.01,2013-09-21 05:51:00,
2013-09-21 01:52:00,65.7,52.7,29.97,NE,35,3.1,3.6,63,0.00,,---,0.00,VWS V14.01,2013-09-21 05:52:00,
2013-09-21 01:53:00,65.7,52.7,29.97,North,6,2.2,2.2,63,0.00,,---,0.00,VWS V14.01,2013-09-21 05:53:00,
2013-09-21 01:54:00,65.7,52.7,29.97,North,6,2.2,2.2,63,0.00,,---,0.00,VWS V14.01,2013-09-21 05:54:00,
2013-09-21 01:56:00,65.8,52.9,29.97,NE,34,0.0,0.0,63,0.00,,---,0.00,VWS V14.01,2013-09-21 05:56:00,
2013-09-21 01:57:00,65.8,52.9,29.97,NE,34,0.0,0.0,63,0.00,,---,0.00,VWS V14.01,2013-09-21 05:57:00,
2013-09-21 01:58:00,65.8,52.9,29.97,NE,34,0.0,0.0,63,0.00,,---,0.00,VWS V14.01,2013-09-21 05:58:00,
2013-09-21 01:59:00,66.0,53.1,29.97,NE,34,0.0,0.0,63,0.00,,---,0.00,VWS V14.01,2013-09-21 05:59:00,
2013-09-21 02:01:00,66.2,52.8,29.97,NNE,18,2.7,2.7,62,0.00,,---,0.00,VWS V14.01,2013-09-21 06:01:00,
2013-09-21 02:02:00,66.2,52.8,29.97,NNE,18,0.0,0.0,62,0.00,,---,0.00,VWS V14.01,2013-09-21 06:02:00,
2013-09-21 02:03:00,66.2,52.8,29.97,NNE,18,0.0,0.0,62,0.00,,---,0.00,VWS V14.01,2013-09-21 06:03:00,
2013-09-21 02:04:00,66.2,52.8,29.97,NNE,18,0.0,0.0,62,0.00,,---,0.00,VWS V14.01,2013-09-21 06:04:00,
2013-09-21 02:06:00,66.2,52.4,29.97,NNW,348,0.0,0.0,61,0.00,,---,0.00,VWS V14.01,2013-09-21 06:06:00,
2013-09-21 02:07:00,66.2,52.4,29.97,NNW,348,0.0,0.0,61,0.00,,---,0.00,VWS V14.01,2013-09-21 06:07:00,
2013-09-21 02:08:00,66.2,52.4,29.97,NNW,345,0.0,0.0,61,0.00,,---,0.00,VWS V14.01,2013-09-21 06:08:00,
2013-09-21 02:09:00,66.2,52.4,29.97,NNW,345,0.0,0.0,61,0.00,,---,0.00,VWS V14.01,2013-09-21 06:09:00,
2013-09-21 02:11:00,66.2,52.4,29.97,NNW,345,0.0,0.0,61,0.00,,---,0.00,VWS V14.01,2013-09-21 06:11:00,
2013-09-21 02:12:00,66.2,52.4,29.97,NNW,345,0.0,0.0,61,0.00,,---,0.00,VWS V14.01,2013-09-21 06:12:00,
2013-09-21 02:13:00,66.2,52.4,29.97,NNW,345,0.0,0.0,61,0.00,,---,0.00,VWS V14.01,2013-09-21 06:13:00,
2013-09-21 02:14:00,66.2,52.4,29.97,NNW,345,0.0,0.0,61,0.00,,---,0.00,VWS V14.01,2013-09-21 06:14:00,
2013-09-21 02:16:00,66.2,52.4,29.97,NNW,345,0.0,0.0,61,0.00,,---,0.00,VWS V14.01,2013-09-21 06:16:00,
2013-09-21 02:17:00,66.2,52.4,29.97,North,0,3.6,3.6,61,0.00,,---,0.00,VWS V14.01,2013-09-21 06:17:00,
2013-09-21 02:18:00,66.2,52.4,29.97,North,0,3.6,3.6,61,0.00,,---,0.00,VWS V14.01,2013-09-21 06:18:00,
2013-09-21 02:19:00,66.2,52.4,29.97,North,0,3.6,3.6,61,0.00,,---,0.00,VWS V14.01,2013-09-21 06:19:00,
2013-09-21 02:21:00,66.2,52.4,29.97,NE,41,0.0,0.0,61,0.00,,---,0.00,VWS V14.01,2013-09-21 06:21:00,
2013-09-21 02:22:00,66.2,51.9,29.97,NE,41,0.0,0.0,60,0.00,,---,0.00,VWS V14.01,2013-09-21 06:22:00,
2013-09-21 02:23:00,66.2,51.9,29.97,NE,41,0.0,0.0,60,0.00,,---,0.00,VWS V14.01,2013-09-21 06:23:00,
2013-09-21 02:24:00,66.2,51.9,29.97,NW,314,0.0,0.0,60,0.00,,---,0.00,VWS V14.01,2013-09-21 06:24:00,
2013-09-21 02:26:00,66.2,51.9,29.97,NW,314,0.0,0.0,60,0.00,,---,0.00,VWS V14.01,2013-09-21 06:26:00,
2013-09-21 02:27:00,66.2,51.9,29.94,NW,315,0.0,0.0,60,0.00,,---,0.00,VWS V14.01,2013-09-21 06:27:00,
2013-09-21 02:28:00,66.2,51.9,29.94,NW,315,0.0,0.0,60,0.00,,---,0.00,VWS V14.01,2013-09-21 06:28:00,
2013-09-21 02:29:00,66.0,52.2,29.94,NNE,14,0.0,0.0,61,0.00,,---,0.00,VWS V14.01,2013-09-21 06:29:00,
2013-09-21 02:31:00,66.0,52.2,29.94,NE,39,0.0,0.0,61,0.00,,---,0.00,VWS V14.01,2013-09-21 06:31:00,
2013-09-21 02:33:00,66.0,52.2,29.94,NE,39,0.0,0.0,61,0.00,,---,0.00,VWS V14.01,2013-09-21 06:33:00,
2013-09-21 02:34:00,66.0,52.2,29.94,North,357,0.0,0.0,61,0.00,,---,0.00,VWS V14.01,2013-09-21 06:34:00,
2013-09-21 02:36:00,66.0,52.2,29.94,North,357,0.0,0.0,61,0.00,,---,0.00,VWS V14.01,2013-09-21 06:36:00,
2013-09-21 02:38:00,66.0,52.2,29.94,North,357,0.0,0.0,61,0.00,,---,0.00,VWS V14.01,2013-09-21 06:38:00,
2013-09-21 02:39:00,66.0,52.2,29.94,North,5,0.0,0.0,61,0.00,,---,0.00,VWS V14.01,2013-09-21 06:39:00,
2013-09-21 02:42:00,66.0,52.2,29.94,North,5,0.0,0.0,61,0.00,,---,0.00,VWS V14.01,2013-09-21 06:42:00,
2013-09-21 02:43:00,65.8,52.0,29.94,North,5,0.0,0.0,61,0.00,,---,0.00,VWS V14.01,2013-09-21 06:43:00,
2013-09-21 02:44:00,65.8,52.0,29.94,North,5,0.0,0.0,61,0.00,,---,0.00,VWS V14.01,2013-09-21 06:44:00,
2013-09-21 02:45:00,65.8,52.0,29.94,NNE,19,0.0,0.0,61,0.00,,---,0.00,VWS V14.01,2013-09-21 06:45:00,
2013-09-21 02:47:00,65.8,52.0,29.94,WNW,288,0.0,0.0,61,0.00,,---,0.00,VWS V14.01,2013-09-21 06:47:00,
2013-09-21 02:48:00,65.8,52.0,29.94,North,353,0.0,0.0,61,0.00,,---,0.00,VWS V14.01,2013-09-21 06:48:00,
2013-09-21 02:49:00,65.8,52.0,29.94,North,353,0.0,0.0,61,0.00,,---,0.00,VWS V14.01,2013-09-21 06:49:00,
2013-09-21 02:50:00,65.8,52.0,29.94,North,0,0.0,0.0,61,0.00,,---,0.00,VWS V14.01,2013-09-21 06:50:00,
2013-09-21 02:52:00,65.8,52.0,29.94,NNW,343,0.0,0.0,61,0.00,,---,0.00,VWS V14.01,2013-09-21 06:52:00,
2013-09-21 02:53:00,65.8,52.0,29.94,NNW,343,0.0,0.0,61,0.00,,---,0.00,VWS V14.01,2013-09-21 06:53:00,
2013-09-21 02:54:00,65.8,52.0,29.94,NNW,343,0.0,0.0,61,0.00,,---,0.00,VWS V14.01,2013-09-21 06:54:00,
2013-09-21 02:55:00,65.8,52.0,29.94,NW,311,0.0,0.0,61,0.00,,---,0.00,VWS V14.01,2013-09-21 06:55:00,
2013-09-21 02:57:00,65.8,52.0,29.94,NW,311,0.0,0.0,61,0.00,,---,0.00,VWS V14.01,2013-09-21 06:57:00,
2013-09-21 02:58:00,65.8,52.0,29.94,NW,311,0.0,0.0,61,0.00,,---,0.00,VWS V14.01,2013-09-21 06:58:00,
2013-09-21 02:59:00,65.8,52.0,29.94,NW,311,0.0,0.0,61,0.00,,---,0.00,VWS V14.01,2013-09-21 06:59:00,
2013-09-21 03:00:00,65.8,52.0,29.94,NW,311,0.0,0.0,61,0.00,,---,0.00,VWS V14.01,2013-09-21 07:00:00,
2013-09-21 03:02:00,65.7,51.9,29.94,NW,316,0.0,0.0,61,0.00,,---,0.00,VWS V14.01,2013-09-21 07:02:00,
2013-09-21 03:03:00,65.7,51.9,29.94,NW,316,0.0,0.0,61,0.00,,---,0.00,VWS V14.01,2013-09-21 07:03:00,
2013-09-21 03:04:00,65.7,51.9,29.94,NW,316,0.0,0.0,61,0.00,,---,0.00,VWS V14.01,2013-09-21 07:04:00,
2013-09-21 03:05:00,65.7,52.3,29.94,NW,316,0.0,0.0,62,0.00,,---,0.00,VWS V14.01,2013-09-21 07:05:00,
2013-09-21 03:07:00,65.7,52.3,29.94,North,6,0.0,0.0,62,0.00,,---,0.00,VWS V14.01,2013-09-21 07:07:00,
2013-09-21 03:08:00,65.7,52.3,29.94,North,6,0.0,0.0,62,0.00,,---,0.00,VWS V14.01,2013-09-21 07:08:00,
2013-09-21 03:09:00,65.7,52.3,29.94,South,191,0.0,0.0,62,0.00,,---,0.00,VWS V14.01,2013-09-21 07:09:00,
2013-09-21 03:10:00,65.7,52.3,29.94,South,191,0.0,0.0,62,0.00,,---,0.00,VWS V14.01,2013-09-21 07:10:00,
2013-09-21 03:12:00,65.7,52.3,29.94,NNW,348,0.0,0.0,62,0.00,,---,0.00,VWS V14.01,2013-09-21 07:12:00,
2013-09-21 03:13:00,65.8,52.5,29.94,NNW,327,2.7,2.7,62,0.00,,---,0.00,VWS V14.01,2013-09-21 07:13:00,
2013-09-21 03:14:00,65.8,52.5,29.94,NNW,327,2.7,2.7,62,0.00,,---,0.00,VWS V14.01,2013-09-21 07:14:00,
2013-09-21 03:15:00,65.8,52.5,29.94,NNW,327,2.7,2.7,62,0.00,,---,0.00,VWS V14.01,2013-09-21 07:15:00,
2013-09-21 03:17:00,65.8,52.5,29.94,NNW,339,3.1,3.1,62,0.00,,---,0.00,VWS V14.01,2013-09-21 07:17:00,
2013-09-21 03:18:00,65.8,52.9,29.94,North,0,4.0,4.0,63,0.00,,---,0.00,VWS V14.01,2013-09-21 07:18:00,
2013-09-21 03:19:00,65.8,52.9,29.94,North,0,4.0,4.0,63,0.00,,---,0.00,VWS V14.01,2013-09-21 07:19:00,
2013-09-21 03:20:00,65.8,52.9,29.94,North,0,4.0,4.0,63,0.00,,---,0.00,VWS V14.01,2013-09-21 07:20:00,
2013-09-21 03:22:00,65.8,52.9,29.94,NNW,332,0.0,2.7,63,0.00,,---,0.00,VWS V14.01,2013-09-21 07:22:00,
2013-09-21 03:23:00,65.8,52.9,29.94,NNW,335,2.2,2.2,63,0.00,,---,0.00,VWS V14.01,2013-09-21 07:23:00,
2013-09-21 03:24:00,65.8,52.9,29.94,NNW,335,2.2,2.2,63,0.00,,---,0.00,VWS V14.01,2013-09-21 07:24:00,
2013-09-21 03:25:00,65.8,52.9,29.94,NW,325,0.0,3.1,63,0.00,,---,0.00,VWS V14.01,2013-09-21 07:25:00,
2013-09-21 03:27:00,66.0,53.1,29.94,North,353,4.0,4.0,63,0.00,,---,0.00,VWS V14.01,2013-09-21 07:27:00,
2013-09-21 03:28:00,66.0,53.1,29.94,North,353,0.0,0.0,63,0.00,,---,0.00,VWS V14.01,2013-09-21 07:28:00,
2013-09-21 03:29:00,66.0,53.1,29.94,North,353,0.0,0.0,63,0.00,,---,0.00,VWS V14.01,2013-09-21 07:29:00,
2013-09-21 03:30:00,66.0,53.1,29.94,NNE,16,0.0,0.0,63,0.00,,---,0.00,VWS V14.01,2013-09-21 07:30:00,
2013-09-21 03:32:00,66.0,53.5,29.94,NE,37,3.6,3.6,64,0.00,,---,0.00,VWS V14.01,2013-09-21 07:32:00,
2013-09-21 03:33:00,66.0,53.5,29.94,NE,37,0.0,0.0,64,0.00,,---,0.00,VWS V14.01,2013-09-21 07:33:00,
2013-09-21 03:34:00,66.0,53.5,29.94,NE,37,0.0,0.0,64,0.00,,---,0.00,VWS V14.01,2013-09-21 07:34:00,
2013-09-21 03:35:00,66.2,53.7,29.94,North,3,0.0,0.0,64,0.00,,---,0.00,VWS V14.01,2013-09-21 07:35:00,
2013-09-21 03:37:00,66.2,53.7,29.94,North,3,0.0,0.0,64,0.00,,---,0.00,VWS V14.01,2013-09-21 07:37:00,
2013-09-21 03:38:00,66.2,53.7,29.94,North,3,0.0,0.0,64,0.00,,---,0.00,VWS V14.01,2013-09-21 07:38:00,
2013-09-21 03:39:00,66.2,53.7,29.94,North,3,0.0,0.0,64,0.00,,---,0.00,VWS V14.01,2013-09-21 07:39:00,
2013-09-21 03:40:00,66.2,54.1,29.94,North,3,0.0,0.0,65,0.00,,---,0.00,VWS V14.01,2013-09-21 07:40:00,
2013-09-21 03:42:00,66.2,54.1,29.94,North,3,0.0,0.0,65,0.00,,---,0.00,VWS V14.01,2013-09-21 07:42:00,
2013-09-21 03:43:00,66.4,54.3,29.94,North,3,0.0,0.0,65,0.00,,---,0.00,VWS V14.01,2013-09-21 07:43:00,
2013-09-21 03:44:00,66.4,54.3,29.94,North,3,0.0,0.0,65,0.00,,---,0.00,VWS V14.01,2013-09-21 07:44:00,
2013-09-21 03:45:00,66.4,54.3,29.94,North,3,0.0,0.0,65,0.00,,---,0.00,VWS V14.01,2013-09-21 07:45:00,
2013-09-21 03:47:00,66.6,54.4,29.94,North,3,0.0,0.0,65,0.00,,---,0.00,VWS V14.01,2013-09-21 07:47:00,
2013-09-21 03:49:00,66.6,54.4,29.94,WNW,286,0.0,0.0,65,0.00,,---,0.00,VWS V14.01,2013-09-21 07:49:00,
2013-09-21 03:51:00,66.6,54.4,29.94,NW,318,2.7,2.7,65,0.00,,---,0.00,VWS V14.01,2013-09-21 07:51:00,
2013-09-21 03:52:00,66.6,54.4,29.94,NW,318,2.7,2.7,65,0.00,,---,0.00,VWS V14.01,2013-09-21 07:52:00,
2013-09-21 03:54:00,66.6,54.4,29.94,NNW,333,2.7,2.7,65,0.00,,---,0.00,VWS V14.01,2013-09-21 07:54:00,
2013-09-21 03:56:00,66.6,54.4,29.94,NW,317,3.6,3.6,65,0.00,,---,0.00,VWS V14.01,2013-09-21 07:56:00,
2013-09-21 03:57:00,66.6,54.4,29.94,NW,317,3.6,3.6,65,0.00,,---,0.00,VWS V14.01,2013-09-21 07:57:00,
2013-09-21 03:59:00,66.6,54.4,29.94,NW,322,2.7,3.6,65,0.00,,---,0.00,VWS V14.01,2013-09-21 07:59:00,
2013-09-21 04:01:00,66.6,54.4,29.94,NW,320,0.0,0.0,65,0.00,,---,0.00,VWS V14.01,2013-09-21 08:01:00,
2013-09-21 04:02:00,66.6,54.4,29.94,NNW,333,4.0,4.0,65,0.00,,---,0.00,VWS V14.01,2013-09-21 08:02:00,
2013-09-21 04:04:00,66.6,54.4,29.94,NNW,333,4.0,4.0,65,0.00,,---,0.00,VWS V14.01,2013-09-21 08:04:00,
2013-09-21 04:06:00,66.6,54.4,29.94,NW,316,3.1,3.1,65,0.00,,---,0.00,VWS V14.01,2013-09-21 08:06:00,
2013-09-21 04:07:00,66.6,54.9,29.94,North,357,4.0,4.0,66,0.00,,---,0.00,VWS V14.01,2013-09-21 08:07:00,
2013-09-21 04:09:00,66.6,54.9,29.94,North,353,2.7,4.0,66,0.00,,---,0.00,VWS V14.01,2013-09-21 08:09:00,
2013-09-21 04:11:00,66.6,54.9,29.94,North,349,3.6,3.6,66,0.00,,---,0.00,VWS V14.01,2013-09-21 08:11:00,
2013-09-21 04:12:00,66.6,54.9,29.94,West,276,2.7,2.7,66,0.00,,---,0.00,VWS V14.01,2013-09-21 08:12:00,
2013-09-21 04:14:00,66.7,55.0,29.94,WNW,298,0.0,0.0,66,0.00,,---,0.00,VWS V14.01,2013-09-21 08:14:00,
2013-09-21 04:16:00,66.7,55.0,29.94,NNE,29,0.0,0.0,66,0.00,,---,0.00,VWS V14.01,2013-09-21 08:16:00,
2013-09-21 04:17:00,66.7,55.0,29.94,North,357,0.0,0.0,66,0.00,,---,0.00,VWS V14.01,2013-09-21 08:17:00,
2013-09-21 04:19:00,66.7,55.5,29.94,North,357,0.0,0.0,67,0.00,,---,0.00,VWS V14.01,2013-09-21 08:19:00,
2013-09-21 04:21:00,66.7,55.5,29.94,North,0,3.6,3.6,67,0.00,,---,0.00,VWS V14.01,2013-09-21 08:21:00,
2013-09-21 04:22:00,66.7,55.5,29.94,NNW,331,3.6,3.6,67,0.00,,---,0.00,VWS V14.01,2013-09-21 08:22:00,
2013-09-21 04:24:00,66.7,55.5,29.94,North,0,2.7,2.7,67,0.00,,---,0.00,VWS V14.01,2013-09-21 08:24:00,
2013-09-21 04:26:00,66.7,55.8,29.94,North,0,3.1,3.1,68,0.00,,---,0.00,VWS V14.01,2013-09-21 08:26:00,
2013-09-21 04:27:00,66.9,56.0,29.94,North,0,3.1,3.1,68,0.00,,---,0.00,VWS V14.01,2013-09-21 08:27:00,
2013-09-21 04:29:00,66.9,56.0,29.94,NW,316,2.7,2.7,68,0.00,,---,0.00,VWS V14.01,2013-09-21 08:29:00,
2013-09-21 04:31:00,66.9,56.0,29.94,NNE,18,2.7,2.7,68,0.00,,---,0.00,VWS V14.01,2013-09-21 08:31:00,
2013-09-21 04:32:00,66.9,56.0,29.94,NNE,18,0.0,0.0,68,0.00,,---,0.00,VWS V14.01,2013-09-21 08:32:00,
2013-09-21 04:34:00,66.9,56.0,29.94,North,357,0.0,2.7,68,0.00,,---,0.00,VWS V14.01,2013-09-21 08:34:00,
2013-09-21 04:36:00,66.9,56.0,29.94,NNW,343,0.0,0.0,68,0.00,,---,0.00,VWS V14.01,2013-09-21 08:36:00,
2013-09-21 04:37:00,66.9,56.0,29.94,North,5,0.0,0.0,68,0.00,,---,0.00,VWS V14.01,2013-09-21 08:37:00,
2013-09-21 04:39:00,66.9,56.0,29.94,North,5,0.0,0.0,68,0.00,,---,0.00,VWS V14.01,2013-09-21 08:39:00,
2013-09-21 04:41:00,66.9,56.0,29.94,NNE,29,0.0,0.0,68,0.00,,---,0.00,VWS V14.01,2013-09-21 08:41:00,
2013-09-21 04:42:00,66.9,56.0,29.94,NNE,29,0.0,0.0,68,0.00,,---,0.00,VWS V14.01,2013-09-21 08:42:00,
2013-09-21 04:44:00,66.9,56.4,29.94,NNW,339,0.0,0.0,69,0.00,,---,0.00,VWS V14.01,2013-09-21 08:44:00,
2013-09-21 04:45:00,66.9,56.4,29.94,NNW,339,0.0,0.0,69,0.00,,---,0.00,VWS V14.01,2013-09-21 08:45:00,
2013-09-21 04:46:00,66.9,56.4,29.94,NNE,22,0.0,0.0,69,0.00,,---,0.00,VWS V14.01,2013-09-21 08:46:00,
2013-09-21 04:47:00,66.9,56.4,29.94,NNE,22,0.0,0.0,69,0.00,,---,0.00,VWS V14.01,2013-09-21 08:47:00,
2013-09-21 04:49:00,66.9,56.4,29.94,North,357,0.0,0.0,69,0.00,,---,0.00,VWS V14.01,2013-09-21 08:49:00,
2013-09-21 04:50:00,66.9,56.4,29.94,ENE,73,0.0,0.0,69,0.00,,---,0.00,VWS V14.01,2013-09-21 08:50:00,
2013-09-21 04:51:00,67.1,56.6,29.94,North,357,0.0,0.0,69,0.00,,---,0.00,VWS V14.01,2013-09-21 08:51:00,
2013-09-21 04:52:00,67.1,56.6,29.94,NE,51,2.7,2.7,69,0.00,,---,0.00,VWS V14.01,2013-09-21 08:52:00,
2013-09-21 04:54:00,67.1,56.6,29.94,NNE,21,3.6,3.6,69,0.00,,---,0.00,VWS V14.01,2013-09-21 08:54:00,
2013-09-21 04:55:00,67.1,56.6,29.94,North,0,0.0,3.6,69,0.00,,---,0.00,VWS V14.01,2013-09-21 08:55:00,
2013-09-21 04:56:00,67.1,57.0,29.94,North,353,2.2,2.2,70,0.00,,---,0.00,VWS V14.01,2013-09-21 08:56:00,
2013-09-21 04:58:00,67.1,57.0,29.94,North,0,0.0,2.2,70,0.00,,---,0.00,VWS V14.01,2013-09-21 08:58:00,
2013-09-21 04:59:00,67.1,57.0,29.94,NNW,339,0.0,0.0,70,0.00,,---,0.00,VWS V14.01,2013-09-21 08:59:00,
2013-09-21 05:00:00,67.1,57.0,29.94,NNW,339,0.0,0.0,70,0.00,,---,0.00,VWS V14.01,2013-09-21 09:00:00,
2013-09-21 05:01:00,67.1,57.0,29.94,NNW,342,0.0,0.0,70,0.00,,---,0.00,VWS V14.01,2013-09-21 09:01:00,
2013-09-21 05:03:00,67.1,57.0,29.94,NNW,336,4.0,4.0,70,0.00,,---,0.00,VWS V14.01,2013-09-21 09:03:00,
2013-09-21 05:04:00,67.1,57.0,29.94,North,357,3.1,3.1,70,0.00,,---,0.00,VWS V14.01,2013-09-21 09:04:00,
2013-09-21 05:05:00,67.1,57.0,29.94,North,3,4.9,5.8,70,0.00,,---,0.00,VWS V14.01,2013-09-21 09:05:00,
2013-09-21 05:06:00,67.1,57.0,29.94,North,353,3.6,3.6,70,0.00,,---,0.00,VWS V14.01,2013-09-21 09:06:00,
2013-09-21 05:08:00,67.1,57.0,29.94,NW,322,3.6,4.0,70,0.00,,---,0.00,VWS V14.01,2013-09-21 09:08:00,
2013-09-21 05:09:00,67.1,57.0,29.94,NNW,343,2.7,3.1,70,0.00,,---,0.00,VWS V14.01,2013-09-21 09:09:00,
2013-09-21 05:10:00,67.1,57.0,29.91,NNW,343,2.7,3.1,70,0.00,,---,0.00,VWS V14.01,2013-09-21 09:10:00,
2013-09-21 05:12:00,67.1,57.0,29.91,NW,304,2.7,2.7,70,0.00,,---,0.00,VWS V14.01,2013-09-21 09:12:00,
2013-09-21 05:13:00,67.1,57.0,29.91,NW,319,3.1,4.0,70,0.00,,---,0.00,VWS V14.01,2013-09-21 09:13:00,
2013-09-21 05:14:00,67.1,57.0,29.91,North,349,4.0,4.0,70,0.00,,---,0.00,VWS V14.01,2013-09-21 09:14:00,
2013-09-21 05:15:00,67.1,57.0,29.91,NNW,346,3.1,3.1,70,0.00,,---,0.00,VWS V14.01,2013-09-21 09:15:00,
2013-09-21 05:17:00,67.1,57.0,29.91,NNW,346,2.2,2.2,70,0.00,,---,0.00,VWS V14.01,2013-09-21 09:17:00,
2013-09-21 05:18:00,67.1,57.0,29.91,NNW,346,2.2,2.2,70,0.00,,---,0.00,VWS V14.01,2013-09-21 09:18:00,
2013-09-21 05:19:00,67.1,57.0,29.91,NW,320,4.0,4.0,70,0.00,,---,0.00,VWS V14.01,2013-09-21 09:19:00,
2013-09-21 05:20:00,66.9,56.8,29.91,NW,320,4.0,4.0,70,0.00,,---,0.00,VWS V14.01,2013-09-21 09:20:00,
2013-09-21 05:22:00,66.9,56.8,29.91,NNW,334,2.7,2.7,70,0.00,,---,0.00,VWS V14.01,2013-09-21 09:22:00,
2013-09-21 05:23:00,66.9,56.8,29.91,North,353,3.1,4.0,70,0.00,,---,0.00,VWS V14.01,2013-09-21 09:23:00,
2013-09-21 05:24:00,66.9,56.8,29.91,NNW,334,2.2,2.2,70,0.00,,---,0.00,VWS V14.01,2013-09-21 09:24:00,
2013-09-21 05:25:00,66.9,56.8,29.91,NNE,13,0.0,0.0,70,0.00,,---,0.00,VWS V14.01,2013-09-21 09:25:00,
2013-09-21 05:27:00,66.9,56.8,29.91,NW,318,0.0,0.0,70,0.00,,---,0.00,VWS V14.01,2013-09-21 09:27:00,
2013-09-21 05:28:00,66.9,56.8,29.91,NNW,341,0.0,0.0,70,0.00,,---,0.00,VWS V14.01,2013-09-21 09:28:00,
2013-09-21 05:29:00,66.9,56.8,29.91,NW,317,4.0,4.0,70,0.00,,---,0.00,VWS V14.01,2013-09-21 09:29:00,
2013-09-21 05:30:00,66.7,56.7,29.91,North,8,3.1,3.1,70,0.00,,---,0.00,VWS V14.01,2013-09-21 09:30:00,
2013-09-21 05:31:00,66.7,56.7,29.91,North,8,3.1,3.1,70,0.00,,---,0.00,VWS V14.01,2013-09-21 09:31:00,
2013-09-21 05:32:00,66.7,56.7,29.91,North,353,3.1,3.1,70,0.00,,---,0.00,VWS V14.01,2013-09-21 09:32:00,
2013-09-21 05:33:00,66.7,56.7,29.91,NNW,335,3.1,3.1,70,0.00,,---,0.00,VWS V14.01,2013-09-21 09:33:00,
2013-09-21 05:34:00,66.7,56.7,29.91,NNW,348,2.7,3.1,70,0.00,,---,0.00,VWS V14.01,2013-09-21 09:34:00,
2013-09-21 05:35:00,66.7,56.7,29.91,North,0,3.6,3.6,70,0.00,,---,0.00,VWS V14.01,2013-09-21 09:35:00,
2013-09-21 05:36:00,66.7,57.0,29.91,NNW,337,3.1,3.6,71,0.00,,---,0.00,VWS V14.01,2013-09-21 09:36:00,
2013-09-21 05:37:00,66.7,57.0,29.91,NNW,337,3.1,3.1,71,0.00,,---,0.00,VWS V14.01,2013-09-21 09:37:00,
2013-09-21 05:38:00,66.7,57.0,29.91,NNW,337,3.1,3.1,71,0.00,,---,0.00,VWS V14.01,2013-09-21 09:38:00,
2013-09-21 05:39:00,66.7,57.0,29.91,NNW,344,2.7,2.7,71,0.00,,---,0.00,VWS V14.01,2013-09-21 09:39:00,
2013-09-21 05:40:00,66.7,57.0,29.91,North,353,0.0,2.7,71,0.00,,---,0.00,VWS V14.01,2013-09-21 09:40:00,
2013-09-21 05:41:00,66.7,57.0,29.91,North,353,0.0,0.0,71,0.00,,---,0.00,VWS V14.01,2013-09-21 09:41:00,
2013-09-21 05:42:00,66.7,57.0,29.91,North,353,0.0,0.0,71,0.00,,---,0.00,VWS V14.01,2013-09-21 09:42:00,
2013-09-21 05:43:00,66.7,57.0,29.91,NW,309,0.0,0.0,71,0.00,,---,0.00,VWS V14.01,2013-09-21 09:43:00,
2013-09-21 05:44:00,66.7,57.0,29.91,NNW,341,0.0,0.0,71,0.00,,---,0.00,VWS V14.01,2013-09-21 09:44:00,
2013-09-21 05:45:00,66.7,57.0,29.91,NNW,341,0.0,0.0,71,0.00,,---,0.00,VWS V14.01,2013-09-21 09:45:00,
2013-09-21 05:46:00,66.7,57.0,29.91,North,353,3.6,3.6,71,0.00,,---,0.00,VWS V14.01,2013-09-21 09:46:00,
2013-09-21 05:47:00,66.7,57.0,29.91,NNW,338,2.2,2.2,71,0.00,,---,0.00,VWS V14.01,2013-09-21 09:47:00,
2013-09-21 05:48:00,66.7,57.0,29.91,NNW,345,2.7,2.7,71,0.00,,---,0.00,VWS V14.01,2013-09-21 09:48:00,
2013-09-21 05:49:00,66.7,57.0,29.91,NNW,345,2.7,2.7,71,0.00,,---,0.00,VWS V14.01,2013-09-21 09:49:00,
2013-09-21 05:50:00,66.6,56.9,29.91,NNW,333,0.0,2.7,71,0.00,,---,0.00,VWS V14.01,2013-09-21 09:50:00,
2013-09-21 05:51:00,66.6,56.9,29.91,NNW,331,3.1,3.1,71,0.00,,---,0.00,VWS V14.01,2013-09-21 09:51:00,
2013-09-21 05:52:00,66.6,56.9,29.91,North,357,0.0,3.1,71,0.00,,---,0.00,VWS V14.01,2013-09-21 09:52:00,
2013-09-21 05:53:00,66.6,56.9,29.91,North,357,0.0,3.1,71,0.00,,---,0.00,VWS V14.01,2013-09-21 09:53:00,
2013-09-21 05:54:00,66.6,56.9,29.91,NNW,328,0.0,3.1,71,0.00,,---,0.00,VWS V14.01,2013-09-21 09:54:00,
2013-09-21 05:55:00,66.6,56.9,29.91,North,3,2.2,2.7,71,0.00,,---,0.00,VWS V14.01,2013-09-21 09:55:00,
2013-09-21 05:56:00,66.6,56.9,29.91,North,357,2.7,2.7,71,0.00,,---,0.00,VWS V14.01,2013-09-21 09:56:00,
2013-09-21 05:57:00,66.7,57.4,29.91,North,357,0.0,0.0,72,0.00,,---,0.00,VWS V14.01,2013-09-21 09:57:00,
2013-09-21 05:58:00,66.7,57.4,29.91,North,357,0.0,0.0,72,0.00,,---,0.00,VWS V14.01,2013-09-21 09:58:00,
2013-09-21 05:59:00,66.7,57.8,29.91,North,11,0.0,0.0,73,0.00,,---,0.00,VWS V14.01,2013-09-21 09:59:00,
2013-09-21 06:00:00,66.7,57.8,29.91,NNW,335,3.1,3.1,73,0.00,,---,0.00,VWS V14.01,2013-09-21 10:00:00,
2013-09-21 06:01:00,66.7,57.8,29.91,NNW,335,0.0,0.0,73,0.00,,---,0.00,VWS V14.01,2013-09-21 10:01:00,
2013-09-21 06:02:00,66.7,57.8,29.91,NW,304,0.0,0.0,73,0.00,,---,0.00,VWS V14.01,2013-09-21 10:02:00,
2013-09-21 06:03:00,66.7,57.8,29.91,NW,304,0.0,0.0,73,0.00,,---,0.00,VWS V14.01,2013-09-21 10:03:00,
2013-09-21 06:04:00,66.7,57.8,29.91,NNW,330,0.0,0.0,73,0.00,,---,0.00,VWS V14.01,2013-09-21 10:04:00,
2013-09-21 06:05:00,66.9,58.0,29.91,North,7,2.7,2.7,73,0.00,,---,0.00,VWS V14.01,2013-09-21 10:05:00,
2013-09-21 06:06:00,66.9,58.0,29.91,North,7,2.7,2.7,73,0.00,,---,0.00,VWS V14.01,2013-09-21 10:06:00,
2013-09-21 06:07:00,66.9,58.0,29.91,North,353,2.7,2.7,73,0.00,,---,0.00,VWS V14.01,2013-09-21 10:07:00,
2013-09-21 06:08:00,66.9,58.0,29.91,NNE,15,3.1,3.1,73,0.00,,---,0.00,VWS V14.01,2013-09-21 10:08:00,
2013-09-21 06:10:00,66.9,58.0,29.91,NW,322,2.2,3.1,73,0.00,,---,0.00,VWS V14.01,2013-09-21 10:10:00,
2013-09-21 06:11:00,66.9,58.0,29.91,NW,306,3.6,3.6,73,0.00,,---,0.00,VWS V14.01,2013-09-21 10:11:00,
2013-09-21 06:12:00,66.9,58.0,29.91,NW,321,0.0,3.6,73,0.00,,---,0.00,VWS V14.01,2013-09-21 10:12:00,
2013-09-21 06:13:00,66.9,58.0,29.91,North,353,2.7,2.7,73,0.00,,---,0.00,VWS V14.01,2013-09-21 10:13:00,
2013-09-21 06:15:00,66.9,58.0,29.91,North,353,2.7,2.7,73,0.00,,---,0.00,VWS V14.01,2013-09-21 10:15:00,
2013-09-21 06:16:00,67.1,58.5,29.91,North,353,0.0,2.7,74,0.00,,---,0.00,VWS V14.01,2013-09-21 10:16:00,
2013-09-21 06:17:00,67.1,58.5,29.91,NNW,346,2.2,2.2,74,0.00,,---,0.00,VWS V14.01,2013-09-21 10:17:00,
2013-09-21 06:18:00,67.1,58.5,29.91,North,350,2.2,2.2,74,0.00,,---,0.00,VWS V14.01,2013-09-21 10:18:00,
2013-09-21 06:20:00,67.1,58.5,29.91,North,353,0.0,0.0,74,0.00,,---,0.00,VWS V14.01,2013-09-21 10:20:00,
2013-09-21 06:21:00,67.1,58.5,29.91,North,353,0.0,0.0,74,0.00,,---,0.00,VWS V14.01,2013-09-21 10:21:00,
2013-09-21 06:23:00,67.3,59.1,29.91,NNE,28,2.7,2.7,75,0.00,,---,0.00,VWS V14.01,2013-09-21 10:23:00,
2013-09-21 06:24:00,67.3,59.1,29.91,NNW,334,2.7,2.7,75,0.00,,---,0.00,VWS V14.01,2013-09-21 10:24:00,
2013-09-21 06:25:00,67.3,59.1,29.91,NW,323,2.7,2.7,75,0.00,,---,0.00,VWS V14.01,2013-09-21 10:25:00,
2013-09-21 06:26:00,67.3,59.1,29.91,North,353,2.7,2.7,75,0.00,,---,0.00,VWS V14.01,2013-09-21 10:26:00,
2013-09-21 06:27:00,67.3,59.1,29.91,NW,317,3.1,3.1,75,0.00,,---,0.00,VWS V14.01,2013-09-21 10:27:00,
2013-09-21 06:28:00,67.3,59.1,29.91,NW,325,3.6,3.6,75,0.00,,---,0.00,VWS V14.01,2013-09-21 10:28:00,
2013-09-21 06:29:00,67.3,59.5,29.91,NW,321,0.0,3.6,76,0.00,,---,0.00,VWS V14.01,2013-09-21 10:29:00,
2013-09-21 06:30:00,67.3,59.5,29.91,North,357,3.1,3.6,76,0.00,,---,0.00,VWS V14.01,2013-09-21 10:30:00,
2013-09-21 06:31:00,67.3,59.5,29.91,NNW,332,0.0,3.1,76,0.00,,---,0.00,VWS V14.01,2013-09-21 10:31:00,
2013-09-21 06:32:00,67.3,59.5,29.91,NNW,332,0.0,0.0,76,0.00,,---,0.00,VWS V14.01,2013-09-21 10:32:00,
2013-09-21 06:33:00,67.5,59.6,29.91,NW,326,0.0,0.0,76,0.00,,---,0.00,VWS V14.01,2013-09-21 10:33:00,
2013-09-21 06:34:00,67.5,59.6,29.91,NNW,338,2.2,2.2,76,0.00,,---,0.00,VWS V14.01,2013-09-21 10:34:00,
2013-09-21 06:35:00,67.5,59.6,29.91,NNW,338,2.2,2.2,76,0.00,,---,0.00,VWS V14.01,2013-09-21 10:35:00,
2013-09-21 06:36:00,67.6,60.9,29.91,NNE,32,0.0,0.0,79,0.00,,---,0.00,VWS V14.01,2013-09-21 10:36:00,
2013-09-21 06:37:00,67.6,60.9,29.91,NNE,32,0.0,0.0,79,0.00,,---,0.00,VWS V14.01,2013-09-21 10:37:00,
2013-09-21 06:38:00,67.6,60.9,29.91,NNE,23,0.0,0.0,79,0.00,,---,0.00,VWS V14.01,2013-09-21 10:38:00,
2013-09-21 06:39:00,67.6,60.9,29.91,NNE,23,0.0,0.0,79,0.00,,---,0.00,VWS V14.01,2013-09-21 10:39:00,
2013-09-21 06:40:00,67.8,61.1,29.91,NNE,22,0.0,0.0,79,0.00,,---,0.00,VWS V14.01,2013-09-21 10:40:00,
2013-09-21 06:41:00,67.8,61.1,29.91,NNE,22,0.0,0.0,79,0.00,,---,0.00,VWS V14.01,2013-09-21 10:41:00,
2013-09-21 06:42:00,67.8,61.1,29.91,North,0,0.0,0.0,79,0.00,,---,0.00,VWS V14.01,2013-09-21 10:42:00,
2013-09-21 06:43:00,67.8,61.1,29.91,North,0,0.0,0.0,79,0.00,,---,0.00,VWS V14.01,2013-09-21 10:43:00,
2013-09-21 06:44:00,67.8,61.1,29.91,North,357,2.7,2.7,79,0.00,,---,0.00,VWS V14.01,2013-09-21 10:44:00,
2013-09-21 06:45:00,67.8,61.1,29.91,North,357,0.0,0.0,79,0.00,,---,0.00,VWS V14.01,2013-09-21 10:45:00,
2013-09-21 06:46:00,67.8,61.1,29.91,NNW,343,0.0,0.0,79,0.00,,---,0.00,VWS V14.01,2013-09-21 10:46:00,
2013-09-21 06:48:00,67.8,60.7,29.91,NNW,343,0.0,0.0,78,0.00,,---,0.00,VWS V14.01,2013-09-21 10:48:00,
2013-09-21 06:49:00,67.8,60.7,29.91,NNW,343,0.0,0.0,78,0.00,,---,0.00,VWS V14.01,2013-09-21 10:49:00,
2013-09-21 06:50:00,67.8,60.7,29.91,WNW,298,0.0,0.0,78,0.00,,---,0.00,VWS V14.01,2013-09-21 10:50:00,
2013-09-21 06:51:00,67.8,60.7,29.91,WNW,293,0.0,0.0,78,0.00,,---,0.00,VWS V14.01,2013-09-21 10:51:00,
2013-09-21 06:53:00,67.8,60.7,29.91,SW,235,0.0,0.0,78,0.00,,---,0.00,VWS V14.01,2013-09-21 10:53:00,
2013-09-21 06:54:00,67.8,60.7,29.91,SW,235,0.0,0.0,78,0.00,,---,0.00,VWS V14.01,2013-09-21 10:54:00,
2013-09-21 06:55:00,67.8,60.3,29.91,SW,235,0.0,0.0,77,0.00,,---,0.00,VWS V14.01,2013-09-21 10:55:00,
2013-09-21 06:56:00,67.8,60.3,29.91,West,272,4.9,4.9,77,0.00,,---,0.00,VWS V14.01,2013-09-21 10:56:00,
2013-09-21 06:58:00,67.8,60.3,29.91,WSW,253,0.0,0.0,77,0.00,,---,0.00,VWS V14.01,2013-09-21 10:58:00,
2013-09-21 06:59:00,67.8,60.3,29.91,WNW,302,0.0,0.0,77,0.00,,---,0.00,VWS V14.01,2013-09-21 10:59:00,
2013-09-21 07:00:00,67.8,60.3,29.91,WNW,287,3.1,4.0,77,0.00,,---,0.00,VWS V14.01,2013-09-21 11:00:00,
2013-09-21 07:01:00,67.8,60.3,29.91,WNW,286,3.6,3.6,77,0.00,,---,0.00,VWS V14.01,2013-09-21 11:01:00,
2013-09-21 07:03:00,67.8,60.3,29.91,West,263,0.0,3.1,77,0.00,,---,0.00,VWS V14.01,2013-09-21 11:03:00,
2013-09-21 07:04:00,67.8,60.7,29.91,West,263,0.0,3.1,78,0.00,,---,0.00,VWS V14.01,2013-09-21 11:04:00,
2013-09-21 07:05:00,67.8,60.7,29.91,West,263,0.0,0.0,78,0.00,,---,0.00,VWS V14.01,2013-09-21 11:05:00,
2013-09-21 07:06:00,67.8,60.7,29.91,West,263,0.0,0.0,78,0.00,,---,0.00,VWS V14.01,2013-09-21 11:06:00,
2013-09-21 07:08:00,68.0,60.9,29.94,NNW,340,0.0,0.0,78,0.00,,---,0.00,VWS V14.01,2013-09-21 11:08:00,
2013-09-21 07:09:00,68.0,60.9,29.94,NNW,340,0.0,0.0,78,0.00,,---,0.00,VWS V14.01,2013-09-21 11:09:00,
2013-09-21 07:10:00,68.0,60.9,29.94,NNW,340,0.0,0.0,78,0.00,,---,0.00,VWS V14.01,2013-09-21 11:10:00,
2013-09-21 07:11:00,68.0,60.9,29.94,NNW,340,0.0,0.0,78,0.00,,---,0.00,VWS V14.01,2013-09-21 11:11:00,
2013-09-21 07:13:00,68.0,60.9,29.94,NNW,340,0.0,0.0,78,0.00,,---,0.00,VWS V14.01,2013-09-21 11:13:00,
2013-09-21 07:14:00,68.0,60.9,29.94,NNW,340,0.0,0.0,78,0.00,,---,0.00,VWS V14.01,2013-09-21 11:14:00,
2013-09-21 07:15:00,68.0,60.9,29.94,NNW,340,0.0,0.0,78,0.00,,---,0.00,VWS V14.01,2013-09-21 11:15:00,
2013-09-21 07:17:00,68.0,60.9,29.94,NNW,340,0.0,0.0,78,0.00,,---,0.00,VWS V14.01,2013-09-21 11:17:00,
2013-09-21 07:18:00,68.0,60.9,29.94,NNW,340,0.0,0.0,78,0.00,,---,0.00,VWS V14.01,2013-09-21 11:18:00,
2013-09-21 07:19:00,68.0,60.9,29.94,NNW,340,0.0,0.0,78,0.00,,---,0.00,VWS V14.01,2013-09-21 11:19:00,
2013-09-21 07:20:00,68.0,60.9,29.94,NNW,340,0.0,0.0,78,0.00,,---,0.00,VWS V14.01,2013-09-21 11:20:00,
2013-09-21 07:22:00,68.0,60.9,29.94,NNW,340,0.0,0.0,78,0.00,,---,0.00,VWS V14.01,2013-09-21 11:22:00,
2013-09-21 07:24:00,68.0,60.9,29.94,NNW,340,0.0,0.0,78,0.00,,---,0.00,VWS V14.01,2013-09-21 11:24:00,
2013-09-21 07:25:00,68.0,60.9,29.94,NNW,340,0.0,0.0,78,0.00,,---,0.00,VWS V14.01,2013-09-21 11:25:00,
2013-09-21 07:27:00,68.0,60.9,29.94,NNW,340,0.0,0.0,78,0.00,,---,0.00,VWS V14.01,2013-09-21 11:27:00,
2013-09-21 07:29:00,68.2,61.1,29.94,NNW,340,0.0,0.0,78,0.00,,---,0.00,VWS V14.01,2013-09-21 11:29:00,
2013-09-21 07:30:00,68.2,61.1,29.94,NNW,340,0.0,0.0,78,0.00,,---,0.00,VWS V14.01,2013-09-21 11:30:00,
2013-09-21 07:32:00,68.2,61.1,29.94,NW,323,0.0,0.0,78,0.00,,---,0.00,VWS V14.01,2013-09-21 11:32:00,
2013-09-21 07:34:00,68.2,61.1,29.94,NW,323,0.0,0.0,78,0.00,,---,0.00,VWS V14.01,2013-09-21 11:34:00,
2013-09-21 07:35:00,68.2,61.4,29.94,NW,323,0.0,0.0,79,0.00,,---,0.00,VWS V14.01,2013-09-21 11:35:00,
2013-09-21 07:37:00,68.2,61.4,29.91,NW,323,0.0,0.0,79,0.00,,---,0.00,VWS V14.01,2013-09-21 11:37:00,
2013-09-21 07:39:00,68.2,61.4,29.91,WNW,288,0.0,0.0,79,0.00,,---,0.00,VWS V14.01,2013-09-21 11:39:00,
2013-09-21 07:40:00,68.4,61.6,29.91,WNW,288,0.0,0.0,79,0.00,,---,0.00,VWS V14.01,2013-09-21 11:40:00,
2013-09-21 07:42:00,68.4,61.6,29.91,NW,312,0.0,2.7,79,0.00,,---,0.00,VWS V14.01,2013-09-21 11:42:00,
2013-09-21 07:44:00,68.4,61.6,29.91,NW,312,0.0,0.0,79,0.00,,---,0.00,VWS V14.01,2013-09-21 11:44:00,
2013-09-21 07:45:00,68.4,61.6,29.91,NW,312,0.0,0.0,79,0.00,,---,0.00,VWS V14.01,2013-09-21 11:45:00,
2013-09-21 07:47:00,68.4,61.6,29.91,NW,320,0.0,0.0,79,0.00,,---,0.00,VWS V14.01,2013-09-21 11:47:00,
2013-09-21 07:49:00,68.4,61.6,29.91,NNW,333,0.0,0.0,79,0.00,,---,0.00,VWS V14.01,2013-09-21 11:49:00,
2013-09-21 07:50:00,68.4,61.6,29.91,West,261,0.0,0.0,79,0.00,,---,0.00,VWS V14.01,2013-09-21 11:50:00,
2013-09-21 07:51:00,68.4,61.6,29.91,North,353,0.0,0.0,79,0.00,,---,0.00,VWS V14.01,2013-09-21 11:51:00,
2013-09-21 07:52:00,68.4,61.6,29.91,North,353,0.0,0.0,79,0.00,,---,0.00,VWS V14.01,2013-09-21 11:52:00,
2013-09-21 07:54:00,68.4,61.6,29.91,North,8,3.6,3.6,79,0.00,,---,0.00,VWS V14.01,2013-09-21 11:54:00,
2013-09-21 07:55:00,68.4,61.6,29.91,North,8,3.6,3.6,79,0.00,,---,0.00,VWS V14.01,2013-09-21 11:55:00,
2013-09-21 07:56:00,68.4,61.6,29.91,North,357,2.7,3.6,79,0.00,,---,0.00,VWS V14.01,2013-09-21 11:56:00,
2013-09-21 07:57:00,68.4,61.6,29.91,NNW,340,0.0,2.7,79,0.00,,---,0.00,VWS V14.01,2013-09-21 11:57:00,
2013-09-21 07:59:00,68.4,61.6,29.91,NNW,335,2.2,2.2,79,0.00,,---,0.00,VWS V14.01,2013-09-21 11:59:00,
2013-09-21 08:00:00,68.4,61.2,29.91,NNW,335,2.2,2.2,78,0.00,,---,0.00,VWS V14.01,2013-09-21 12:00:00,
2013-09-21 08:01:00,68.4,61.6,29.91,NNW,335,2.2,2.2,79,0.00,,---,0.00,VWS V14.01,2013-09-21 12:01:00,
2013-09-21 08:02:00,68.4,61.6,29.91,NNW,335,2.2,2.2,79,0.00,,---,0.00,VWS V14.01,2013-09-21 12:02:00,
2013-09-21 08:04:00,68.4,61.6,29.91,North,353,0.0,0.0,79,0.00,,---,0.00,VWS V14.01,2013-09-21 12:04:00,
2013-09-21 08:05:00,68.4,61.6,29.91,North,353,0.0,0.0,79,0.00,,---,0.00,VWS V14.01,2013-09-21 12:05:00,
2013-09-21 08:06:00,68.4,61.6,29.91,North,353,0.0,0.0,79,0.00,,---,0.00,VWS V14.01,2013-09-21 12:06:00,
2013-09-21 08:07:00,68.4,61.6,29.91,North,353,0.0,0.0,79,0.00,,---,0.00,VWS V14.01,2013-09-21 12:07:00,
2013-09-21 08:09:00,68.4,61.6,29.91,North,353,0.0,0.0,79,0.00,,---,0.00,VWS V14.01,2013-09-21 12:09:00,
2013-09-21 08:10:00,68.4,61.6,29.91,North,353,0.0,0.0,79,0.00,,---,0.00,VWS V14.01,2013-09-21 12:10:00,
2013-09-21 08:11:00,68.5,61.8,29.91,North,353,0.0,0.0,79,0.00,,---,0.00,VWS V14.01,2013-09-21 12:11:00,
2013-09-21 08:12:00,68.5,61.8,29.91,North,353,0.0,0.0,79,0.00,,---,0.00,VWS V14.01,2013-09-21 12:12:00,
2013-09-21 08:14:00,68.5,61.8,29.91,North,353,0.0,0.0,79,0.00,,---,0.00,VWS V14.01,2013-09-21 12:14:00,
2013-09-21 08:15:00,68.5,61.8,29.91,North,353,0.0,0.0,79,0.00,,---,0.00,VWS V14.01,2013-09-21 12:15:00,
2013-09-21 08:16:00,68.5,61.8,29.91,North,10,0.0,0.0,79,0.00,,---,0.00,VWS V14.01,2013-09-21 12:16:00,
2013-09-21 08:17:00,68.5,61.8,29.91,North,10,0.0,0.0,79,0.00,,---,0.00,VWS V14.01,2013-09-21 12:17:00,
2013-09-21 08:19:00,68.5,62.1,29.91,North,10,0.0,0.0,80,0.00,,---,0.00,VWS V14.01,2013-09-21 12:19:00,
2013-09-21 08:20:00,68.5,62.1,29.91,North,10,0.0,0.0,80,0.00,,---,0.00,VWS V14.01,2013-09-21 12:20:00,
2013-09-21 08:21:00,68.5,62.1,29.91,North,10,0.0,0.0,80,0.00,,---,0.00,VWS V14.01,2013-09-21 12:21:00,
2013-09-21 08:22:00,68.7,62.3,29.91,North,10,0.0,0.0,80,0.00,,---,0.00,VWS V14.01,2013-09-21 12:22:00,
2013-09-21 08:24:00,68.7,62.3,29.91,NNW,340,3.6,3.6,80,0.00,,---,0.00,VWS V14.01,2013-09-21 12:24:00,
2013-09-21 08:25:00,68.7,62.3,29.91,North,2,2.7,3.6,80,0.00,,---,0.00,VWS V14.01,2013-09-21 12:25:00,
2013-09-21 08:27:00,68.7,62.3,29.91,North,2,0.0,0.0,80,0.00,,---,0.00,VWS V14.01,2013-09-21 12:27:00,
2013-09-21 08:29:00,68.9,62.5,29.91,North,2,0.0,0.0,80,0.00,,---,0.00,VWS V14.01,2013-09-21 12:29:00,
2013-09-21 08:30:00,68.9,62.5,29.91,North,2,0.0,0.0,80,0.00,,---,0.00,VWS V14.01,2013-09-21 12:30:00,
2013-09-21 08:32:00,68.9,62.5,29.91,North,2,0.0,0.0,80,0.00,,---,0.00,VWS V14.01,2013-09-21 12:32:00,
2013-09-21 08:33:00,68.9,62.5,29.91,North,2,0.0,0.0,80,0.00,,---,0.00,VWS V14.01,2013-09-21 12:33:00,
2013-09-21 08:34:00,69.1,62.7,29.91,North,2,0.0,0.0,80,0.00,,---,0.00,VWS V14.01,2013-09-21 12:34:00,
2013-09-21 08:35:00,69.1,62.7,29.91,North,2,0.0,0.0,80,0.00,,---,0.00,VWS V14.01,2013-09-21 12:35:00,
2013-09-21 08:36:00,69.1,62.7,29.91,North,357,0.0,0.0,80,0.00,,---,0.00,VWS V14.01,2013-09-21 12:36:00,
2013-09-21 08:37:00,69.1,62.7,29.91,North,357,0.0,0.0,80,0.00,,---,0.00,VWS V14.01,2013-09-21 12:37:00,
2013-09-21 08:38:00,69.1,62.7,29.91,North,357,0.0,0.0,80,0.00,,---,0.00,VWS V14.01,2013-09-21 12:38:00,
2013-09-21 08:39:00,69.1,62.7,29.91,North,357,0.0,0.0,80,0.00,,---,0.00,VWS V14.01,2013-09-21 12:39:00,
2013-09-21 08:40:00,69.1,62.7,29.91,North,357,0.0,0.0,80,0.00,,---,0.00,VWS V14.01,2013-09-21 12:40:00,
2013-09-21 08:41:00,69.1,62.7,29.91,North,357,0.0,0.0,80,0.00,,---,0.00,VWS V14.01,2013-09-21 12:41:00,
2013-09-21 08:42:00,69.1,62.7,29.91,North,357,0.0,0.0,80,0.00,,---,0.00,VWS V14.01,2013-09-21 12:42:00,
2013-09-21 08:43:00,69.1,62.7,29.91,North,357,0.0,0.0,80,0.00,,---,0.00,VWS V14.01,2013-09-21 12:43:00,
2013-09-21 08:44:00,69.3,62.8,29.91,North,357,0.0,0.0,80,0.00,,---,0.00,VWS V14.01,2013-09-21 12:44:00,
2013-09-21 08:45:00,69.3,62.8,29.91,North,357,0.0,0.0,80,0.00,,---,0.00,VWS V14.01,2013-09-21 12:45:00,
2013-09-21 08:46:00,69.3,62.8,29.91,North,357,0.0,0.0,80,0.00,,---,0.00,VWS V14.01,2013-09-21 12:46:00,
2013-09-21 08:47:00,69.3,62.8,29.91,North,357,0.0,0.0,80,0.00,,---,0.00,VWS V14.01,2013-09-21 12:47:00,
2013-09-21 08:48:00,69.3,62.8,29.91,NNE,14,0.0,0.0,80,0.00,,---,0.00,VWS V14.01,2013-09-21 12:48:00,
2013-09-21 08:49:00,69.4,63.0,29.91,NNE,14,0.0,0.0,80,0.00,,---,0.00,VWS V14.01,2013-09-21 12:49:00,
2013-09-21 08:51:00,69.4,63.0,29.91,NNE,14,0.0,0.0,80,0.00,,---,0.00,VWS V14.01,2013-09-21 12:51:00,
2013-09-21 08:52:00,69.4,63.0,29.91,South,188,0.0,0.0,80,0.00,,---,0.00,VWS V14.01,2013-09-21 12:52:00,
2013-09-21 08:53:00,69.4,63.0,29.91,South,188,0.0,0.0,80,0.00,,---,0.00,VWS V14.01,2013-09-21 12:53:00,
2013-09-21 08:54:00,69.6,63.2,29.91,South,188,0.0,0.0,80,0.00,,---,0.00,VWS V14.01,2013-09-21 12:54:00,
2013-09-21 08:56:00,69.6,63.2,29.91,South,188,0.0,0.0,80,0.00,,---,0.00,VWS V14.01,2013-09-21 12:56:00,
2013-09-21 08:57:00,69.6,63.2,29.91,South,188,0.0,0.0,80,0.00,,---,0.00,VWS V14.01,2013-09-21 12:57:00,
2013-09-21 08:58:00,69.8,63.0,29.91,South,188,0.0,0.0,79,0.00,,---,0.00,VWS V14.01,2013-09-21 12:58:00,
2013-09-21 08:59:00,69.8,63.0,29.91,South,188,0.0,0.0,79,0.00,,---,0.00,VWS V14.01,2013-09-21 12:59:00,
2013-09-21 09:01:00,69.8,63.0,29.91,South,188,0.0,0.0,79,0.00,,---,0.00,VWS V14.01,2013-09-21 13:01:00,
2013-09-21 09:02:00,69.8,63.0,29.91,South,188,0.0,0.0,79,0.00,,---,0.00,VWS V14.01,2013-09-21 13:02:00,
2013-09-21 09:03:00,69.8,63.0,29.91,South,188,0.0,0.0,79,0.00,,---,0.00,VWS V14.01,2013-09-21 13:03:00,
2013-09-21 09:04:00,70.0,63.5,29.91,South,188,0.0,0.0,80,0.00,,---,0.00,VWS V14.01,2013-09-21 13:04:00,
2013-09-21 09:06:00,70.2,63.3,29.91,South,188,0.0,0.0,79,0.00,,---,0.00,VWS V14.01,2013-09-21 13:06:00,
2013-09-21 09:07:00,70.2,63.3,29.91,South,188,0.0,0.0,79,0.00,,---,0.00,VWS V14.01,2013-09-21 13:07:00,
2013-09-21 09:08:00,70.2,63.3,29.91,South,188,0.0,0.0,79,0.00,,---,0.00,VWS V14.01,2013-09-21 13:08:00,
2013-09-21 09:09:00,70.2,63.3,29.91,South,188,0.0,0.0,79,0.00,,---,0.00,VWS V14.01,2013-09-21 13:09:00,
2013-09-21 09:11:00,70.3,63.5,29.91,South,188,0.0,0.0,79,0.00,,---,0.00,VWS V14.01,2013-09-21 13:11:00,
2013-09-21 09:12:00,70.3,63.5,29.91,South,188,0.0,0.0,79,0.00,,---,0.00,VWS V14.01,2013-09-21 13:12:00,
2013-09-21 09:13:00,70.3,63.5,29.91,South,188,0.0,0.0,79,0.00,,---,0.00,VWS V14.01,2013-09-21 13:13:00,
2013-09-21 09:14:00,70.5,63.7,29.91,South,188,0.0,0.0,79,0.00,,---,0.00,VWS V14.01,2013-09-21 13:14:00,
2013-09-21 09:16:00,70.5,63.7,29.91,South,188,0.0,0.0,79,0.00,,---,0.00,VWS V14.01,2013-09-21 13:16:00,
2013-09-21 09:17:00,70.7,63.9,29.91,South,188,0.0,0.0,79,0.00,,---,0.00,VWS V14.01,2013-09-21 13:17:00,
2013-09-21 09:18:00,70.7,63.9,29.91,South,188,0.0,0.0,79,0.00,,---,0.00,VWS V14.01,2013-09-21 13:18:00,
2013-09-21 09:19:00,70.7,63.9,29.91,South,188,0.0,0.0,79,0.00,,---,0.00,VWS V14.01,2013-09-21 13:19:00,
2013-09-21 09:22:00,70.9,64.1,29.91,South,188,0.0,0.0,79,0.00,,---,0.00,VWS V14.01,2013-09-21 13:22:00,
2013-09-21 09:23:00,70.9,64.1,29.91,South,188,0.0,0.0,79,0.00,,---,0.00,VWS V14.01,2013-09-21 13:23:00,
2013-09-21 09:24:00,71.1,64.2,29.91,South,188,0.0,0.0,79,0.00,,---,0.00,VWS V14.01,2013-09-21 13:24:00,
2013-09-21 09:27:00,71.1,64.2,29.91,South,188,0.0,0.0,79,0.00,,---,0.00,VWS V14.01,2013-09-21 13:27:00,
2013-09-21 09:28:00,71.2,64.4,29.91,South,188,0.0,0.0,79,0.00,,---,0.00,VWS V14.01,2013-09-21 13:28:00,
2013-09-21 09:29:00,71.4,64.6,29.91,South,188,0.0,0.0,79,0.00,,---,0.00,VWS V14.01,2013-09-21 13:29:00,
2013-09-21 09:32:00,71.4,64.6,29.91,South,188,0.0,0.0,79,0.00,,---,0.00,VWS V14.01,2013-09-21 13:32:00,
2013-09-21 09:33:00,71.6,64.4,29.91,South,188,0.0,0.0,78,0.00,,---,0.00,VWS V14.01,2013-09-21 13:33:00,
2013-09-21 09:34:00,71.6,64.4,29.91,South,188,0.0,0.0,78,0.00,,---,0.00,VWS V14.01,2013-09-21 13:34:00,
2013-09-21 09:37:00,71.6,63.3,29.91,SSE,151,0.0,0.0,75,0.00,,---,0.00,VWS V14.01,2013-09-21 13:37:00,
2013-09-21 09:38:00,71.6,63.3,29.91,SSE,151,0.0,0.0,75,0.00,,---,0.00,VWS V14.01,2013-09-21 13:38:00,
2013-09-21 09:40:00,71.6,63.3,29.91,SSE,151,0.0,0.0,75,0.00,,---,0.00,VWS V14.01,2013-09-21 13:40:00,
2013-09-21 09:42:00,71.8,61.9,29.91,SSE,151,0.0,0.0,71,0.00,,---,0.00,VWS V14.01,2013-09-21 13:42:00,
2013-09-21 09:43:00,71.8,61.9,29.91,SSE,151,0.0,0.0,71,0.00,,---,0.00,VWS V14.01,2013-09-21 13:43:00,
2013-09-21 09:44:00,71.8,61.9,29.91,SSE,150,0.0,0.0,71,0.00,,---,0.00,VWS V14.01,2013-09-21 13:44:00,
2013-09-21 09:47:00,71.8,59.8,29.91,SSE,150,0.0,0.0,66,0.00,,---,0.00,VWS V14.01,2013-09-21 13:47:00,
2013-09-21 09:48:00,71.8,59.8,29.91,SSE,150,0.0,0.0,66,0.00,,---,0.00,VWS V14.01,2013-09-21 13:48:00,
2013-09-21 09:50:00,72.0,60.4,29.91,SSE,150,0.0,0.0,67,0.00,,---,0.00,VWS V14.01,2013-09-21 13:50:00,
2013-09-21 09:52:00,72.0,59.1,29.91,East,98,0.0,0.0,64,0.00,,---,0.00,VWS V14.01,2013-09-21 13:52:00,
2013-09-21 09:53:00,72.0,59.1,29.91,SE,142,0.0,0.0,64,0.00,,---,0.00,VWS V14.01,2013-09-21 13:53:00,
2013-09-21 09:54:00,72.0,59.1,29.91,ESE,120,0.0,0.0,64,0.00,,---,0.00,VWS V14.01,2013-09-21 13:54:00,
2013-09-21 09:55:00,72.0,58.2,29.91,ENE,76,0.0,0.0,62,0.00,,---,0.00,VWS V14.01,2013-09-21 13:55:00,
2013-09-21 09:57:00,72.0,58.2,29.91,ESE,103,0.0,0.0,62,0.00,,---,0.00,VWS V14.01,2013-09-21 13:57:00,
2013-09-21 09:58:00,72.3,58.6,29.91,ESE,118,3.6,3.6,62,0.00,,---,0.00,VWS V14.01,2013-09-21 13:58:00,
2013-09-21 09:59:00,72.3,57.7,29.91,ESE,119,4.0,4.0,60,0.00,,---,0.00,VWS V14.01,2013-09-21 13:59:00,
2013-09-21 10:00:00,72.3,57.7,29.91,ESE,119,4.0,4.0,60,0.00,,---,0.00,VWS V14.01,2013-09-21 14:00:00,
2013-09-21 10:02:00,72.3,55.3,29.91,SSE,147,3.6,3.6,55,0.00,,---,0.00,VWS V14.01,2013-09-21 14:02:00,
2013-09-21 10:03:00,72.3,55.3,29.91,SSE,147,3.6,3.6,55,0.00,,---,0.00,VWS V14.01,2013-09-21 14:03:00,
2013-09-21 10:04:00,72.3,55.3,29.91,SSE,147,3.6,3.6,55,0.00,,---,0.00,VWS V14.01,2013-09-21 14:04:00,
2013-09-21 10:05:00,72.3,55.3,29.91,SE,144,2.7,3.6,55,0.00,,---,0.00,VWS V14.01,2013-09-21 14:05:00,
2013-09-21 10:07:00,72.7,56.1,29.91,ESE,117,3.1,3.1,56,0.00,,---,0.00,VWS V14.01,2013-09-21 14:07:00,
2013-09-21 10:08:00,72.9,54.8,29.91,ESE,106,2.7,2.7,53,0.00,,---,0.00,VWS V14.01,2013-09-21 14:08:00,
2013-09-21 10:09:00,73.0,55.4,29.91,ESE,115,4.0,4.0,54,0.00,,---,0.00,VWS V14.01,2013-09-21 14:09:00,
2013-09-21 10:10:00,73.0,55.4,29.91,ESE,115,4.0,4.0,54,0.00,,---,0.00,VWS V14.01,2013-09-21 14:10:00,
2013-09-21 10:12:00,73.2,56.1,29.91,SE,132,2.7,2.7,55,0.00,,---,0.00,VWS V14.01,2013-09-21 14:12:00,
2013-09-21 10:13:00,73.2,56.1,29.91,SE,132,2.7,2.7,55,0.00,,---,0.00,VWS V14.01,2013-09-21 14:13:00,
2013-09-21 10:14:00,73.2,56.1,29.91,SE,126,2.7,3.1,55,0.00,,---,0.00,VWS V14.01,2013-09-21 14:14:00,
2013-09-21 10:15:00,73.4,54.2,29.91,ESE,119,3.1,3.1,51,0.00,,---,0.00,VWS V14.01,2013-09-21 14:15:00,
2013-09-21 10:17:00,73.4,54.2,29.91,SSE,163,0.0,3.1,51,0.00,,---,0.00,VWS V14.01,2013-09-21 14:17:00,
2013-09-21 10:18:00,73.4,53.7,29.91,SSE,163,0.0,0.0,50,0.00,,---,0.00,VWS V14.01,2013-09-21 14:18:00,
2013-09-21 10:19:00,73.4,53.7,29.91,SSE,163,0.0,0.0,50,0.00,,---,0.00,VWS V14.01,2013-09-21 14:19:00,
2013-09-21 10:20:00,73.4,53.7,29.91,SSE,163,0.0,0.0,50,0.00,,---,0.00,VWS V14.01,2013-09-21 14:20:00,
2013-09-21 10:23:00,73.6,54.4,29.91,SSE,163,0.0,0.0,51,0.00,,---,0.00,VWS V14.01,2013-09-21 14:23:00,
2013-09-21 10:24:00,73.6,54.4,29.91,SSE,163,0.0,0.0,51,0.00,,---,0.00,VWS V14.01,2013-09-21 14:24:00,
2013-09-21 10:25:00,73.6,54.4,29.91,ESE,112,2.7,3.1,51,0.00,,---,0.00,VWS V14.01,2013-09-21 14:25:00,
2013-09-21 10:28:00,73.8,54.0,29.91,ESE,110,3.1,3.1,50,0.00,,---,0.00,VWS V14.01,2013-09-21 14:28:00,
2013-09-21 10:29:00,73.8,54.0,29.91,SE,142,2.7,2.7,50,0.00,,---,0.00,VWS V14.01,2013-09-21 14:29:00,
2013-09-21 10:30:00,73.8,54.0,29.91,ESE,116,3.1,3.6,50,0.00,,---,0.00,VWS V14.01,2013-09-21 14:30:00,
2013-09-21 10:33:00,73.9,54.2,29.91,East,99,3.6,3.6,50,0.00,,---,0.00,VWS V14.01,2013-09-21 14:33:00,
2013-09-21 10:34:00,73.9,54.2,29.91,SE,146,3.1,3.6,50,0.00,,---,0.00,VWS V14.01,2013-09-21 14:34:00,
2013-09-21 10:35:00,73.9,54.2,29.91,SSE,148,2.7,2.7,50,0.00,,---,0.00,VWS V14.01,2013-09-21 14:35:00,
2013-09-21 10:38:00,74.3,53.4,29.91,SE,140,0.0,0.0,48,0.00,,---,0.00,VWS V14.01,2013-09-21 14:38:00,
2013-09-21 10:39:00,74.3,53.4,29.91,SE,140,0.0,0.0,48,0.00,,---,0.00,VWS V14.01,2013-09-21 14:39:00,
2013-09-21 10:40:00,74.5,53.0,29.91,SE,124,0.0,0.0,47,0.00,,---,0.00,VWS V14.01,2013-09-21 14:40:00,
2013-09-21 10:43:00,74.5,53.5,29.91,SE,124,0.0,0.0,48,0.00,,---,0.00,VWS V14.01,2013-09-21 14:43:00,
2013-09-21 10:44:00,74.5,53.5,29.91,SE,138,0.0,0.0,48,0.00,,---,0.00,VWS V14.01,2013-09-21 14:44:00,
2013-09-21 10:45:00,74.7,51.9,29.91,SE,138,0.0,0.0,45,0.00,,---,0.00,VWS V14.01,2013-09-21 14:45:00,
2013-09-21 10:48:00,74.7,52.5,29.91,SE,133,3.1,3.1,46,0.00,,---,0.00,VWS V14.01,2013-09-21 14:48:00,
2013-09-21 10:49:00,74.8,53.3,29.91,South,189,3.1,3.1,47,0.00,,---,0.00,VWS V14.01,2013-09-21 14:49:00,
2013-09-21 10:50:00,74.8,52.7,29.91,South,189,3.1,3.1,46,0.00,,---,0.00,VWS V14.01,2013-09-21 14:50:00,
2013-09-21 10:53:00,75.2,53.6,29.91,SSE,163,4.9,4.9,47,0.00,,---,0.00,VWS V14.01,2013-09-21 14:53:00,
2013-09-21 10:54:00,75.2,53.6,29.91,East,90,4.9,4.9,47,0.00,,---,0.00,VWS V14.01,2013-09-21 14:54:00,
2013-09-21 10:55:00,75.2,53.6,29.91,East,90,4.9,4.9,47,0.00,,---,0.00,VWS V14.01,2013-09-21 14:55:00,
2013-09-21 10:58:00,75.7,53.5,29.91,SE,129,2.7,3.6,46,0.00,,---,0.00,VWS V14.01,2013-09-21 14:58:00,
2013-09-21 10:59:00,75.7,53.5,29.91,South,178,3.1,3.1,46,0.00,,---,0.00,VWS V14.01,2013-09-21 14:59:00,
2013-09-21 11:00:00,75.7,53.5,29.91,South,178,3.1,3.1,46,0.00,,---,0.00,VWS V14.01,2013-09-21 15:00:00,
2013-09-21 11:03:00,75.7,53.5,29.91,South,183,0.0,0.0,46,0.00,,---,0.00,VWS V14.01,2013-09-21 15:03:00,
2013-09-21 11:04:00,75.7,53.5,29.91,South,183,0.0,0.0,46,0.00,,---,0.00,VWS V14.01,2013-09-21 15:04:00,
2013-09-21 11:05:00,76.1,52.6,29.91,South,183,0.0,0.0,44,0.00,,---,0.00,VWS V14.01,2013-09-21 15:05:00,
2013-09-21 11:08:00,76.1,52.6,29.91,South,174,4.5,4.5,44,0.00,,---,0.00,VWS V14.01,2013-09-21 15:08:00,
2013-09-21 11:09:00,76.1,52.6,29.91,South,174,4.5,4.5,44,0.00,,---,0.00,VWS V14.01,2013-09-21 15:09:00,
2013-09-21 11:10:00,76.1,52.6,29.91,South,174,4.5,4.5,44,0.00,,---,0.00,VWS V14.01,2013-09-21 15:10:00,
2013-09-21 11:13:00,76.5,53.6,29.91,SSW,194,3.6,3.6,45,0.00,,---,0.00,VWS V14.01,2013-09-21 15:13:00,
2013-09-21 11:14:00,76.5,53.6,29.91,SSE,160,3.6,3.6,45,0.00,,---,0.00,VWS V14.01,2013-09-21 15:14:00,
2013-09-21 11:15:00,76.5,53.6,29.91,SE,136,4.5,4.5,45,0.00,,---,0.00,VWS V14.01,2013-09-21 15:15:00,
2013-09-21 11:18:00,76.8,53.3,29.91,SSW,203,2.7,2.7,44,0.00,,---,0.00,VWS V14.01,2013-09-21 15:18:00,
2013-09-21 11:19:00,76.8,52.7,29.91,SSW,203,2.7,2.7,43,0.00,,---,0.00,VWS V14.01,2013-09-21 15:19:00,
2013-09-21 11:20:00,77.0,52.2,29.91,SSW,197,0.0,2.7,42,0.00,,---,0.00,VWS V14.01,2013-09-21 15:20:00,
2013-09-21 11:23:00,77.0,52.2,29.91,NNW,328,0.0,0.0,42,0.00,,---,0.00,VWS V14.01,2013-09-21 15:23:00,
2013-09-21 11:24:00,77.0,52.2,29.91,SSW,202,3.1,3.1,42,0.00,,---,0.00,VWS V14.01,2013-09-21 15:24:00,
2013-09-21 11:25:00,77.0,52.2,29.91,SSW,202,3.1,3.1,42,0.00,,---,0.00,VWS V14.01,2013-09-21 15:25:00,
2013-09-21 11:28:00,77.4,51.2,29.91,SSW,200,3.1,3.1,40,0.00,,---,0.00,VWS V14.01,2013-09-21 15:28:00,
2013-09-21 11:29:00,77.5,51.3,29.91,ESE,118,3.1,5.8,40,0.00,,---,0.00,VWS V14.01,2013-09-21 15:29:00,
2013-09-21 11:30:00,77.5,51.3,29.91,SSE,164,3.6,5.8,40,0.00,,---,0.00,VWS V14.01,2013-09-21 15:30:00,
2013-09-21 11:33:00,77.9,50.3,29.91,SSE,164,3.6,3.6,38,0.00,,---,0.00,VWS V14.01,2013-09-21 15:33:00,
2013-09-21 11:34:00,77.9,50.3,29.91,South,170,4.0,4.0,38,0.00,,---,0.00,VWS V14.01,2013-09-21 15:34:00,
2013-09-21 11:35:00,78.1,50.4,29.91,South,170,4.0,4.0,38,0.00,,---,0.00,VWS V14.01,2013-09-21 15:35:00,
2013-09-21 11:38:00,78.1,49.0,29.91,ESE,117,4.0,4.0,36,0.00,,---,0.00,VWS V14.01,2013-09-21 15:38:00,
2013-09-21 11:39:00,78.1,49.0,29.91,SSE,164,0.0,0.0,36,0.00,,---,0.00,VWS V14.01,2013-09-21 15:39:00,
2013-09-21 11:40:00,78.1,49.0,29.91,South,169,0.0,0.0,36,0.00,,---,0.00,VWS V14.01,2013-09-21 15:40:00,
2013-09-21 11:43:00,77.7,49.4,29.91,WSW,252,2.7,2.7,37,0.00,,---,0.00,VWS V14.01,2013-09-21 15:43:00,
2013-09-21 11:44:00,77.4,49.1,29.91,South,183,3.1,3.1,37,0.00,,---,0.00,VWS V14.01,2013-09-21 15:44:00,
2013-09-21 11:45:00,77.2,48.9,29.91,South,183,3.1,3.1,37,0.00,,---,0.00,VWS V14.01,2013-09-21 15:45:00,
2013-09-21 11:48:00,77.2,48.9,29.91,SSW,194,3.1,3.1,37,0.00,,---,0.00,VWS V14.01,2013-09-21 15:48:00,
2013-09-21 11:49:00,77.0,49.5,29.91,West,267,0.0,2.7,38,0.00,,---,0.00,VWS V14.01,2013-09-21 15:49:00,
2013-09-21 11:50:00,77.0,49.5,29.91,SSE,167,3.1,3.1,38,0.00,,---,0.00,VWS V14.01,2013-09-21 15:50:00,
2013-09-21 11:51:00,77.0,49.5,29.91,SSE,167,3.1,3.1,38,0.00,,---,0.00,VWS V14.01,2013-09-21 15:51:00,
2013-09-21 11:53:00,77.2,51.0,29.91,SSW,195,6.3,6.3,40,0.00,,---,0.00,VWS V14.01,2013-09-21 15:53:00,
2013-09-21 11:55:00,77.4,51.2,29.91,SSW,195,6.3,6.3,40,0.00,,---,0.00,VWS V14.01,2013-09-21 15:55:00,
2013-09-21 11:56:00,77.4,51.2,29.91,SSE,164,7.6,7.6,40,0.00,,---,0.00,VWS V14.01,2013-09-21 15:56:00,
2013-09-21 11:58:00,77.4,51.2,29.91,SSE,148,6.3,6.3,40,0.00,,---,0.00,VWS V14.01,2013-09-21 15:58:00,
2013-09-21 12:00:00,77.4,50.5,29.91,SE,134,0.0,6.3,39,0.00,,---,0.00,VWS V14.01,2013-09-21 16:00:00,
2013-09-21 12:01:00,77.4,49.8,29.91,SSW,199,0.0,0.0,38,0.00,,---,0.00,VWS V14.01,2013-09-21 16:01:00,
2013-09-21 12:03:00,77.4,50.5,29.91,SSW,195,5.8,5.8,39,0.00,,---,0.00,VWS V14.01,2013-09-21 16:03:00,
2013-09-21 12:05:00,77.4,50.5,29.91,SSW,195,5.8,5.8,39,0.00,,---,0.00,VWS V14.01,2013-09-21 16:05:00,
2013-09-21 12:06:00,77.4,50.5,29.91,SSW,195,5.8,5.8,39,0.00,,---,0.00,VWS V14.01,2013-09-21 16:06:00,
2013-09-21 12:08:00,77.9,51.0,29.91,South,185,5.4,5.4,39,0.00,,---,0.00,VWS V14.01,2013-09-21 16:08:00,
2013-09-21 12:10:00,78.3,51.3,29.91,SW,226,3.1,3.1,39,0.00,,---,0.00,VWS V14.01,2013-09-21 16:10:00,
2013-09-21 12:11:00,78.3,51.3,29.91,SW,226,3.1,3.1,39,0.00,,---,0.00,VWS V14.01,2013-09-21 16:11:00,
2013-09-21 12:13:00,78.1,50.4,29.91,ESE,113,0.0,0.0,38,0.00,,---,0.00,VWS V14.01,2013-09-21 16:13:00,
2013-09-21 12:15:00,78.1,50.4,29.91,South,183,3.6,3.6,38,0.00,,---,0.00,VWS V14.01,2013-09-21 16:15:00,
2013-09-21 12:16:00,78.1,50.4,29.91,South,183,3.6,3.6,38,0.00,,---,0.00,VWS V14.01,2013-09-21 16:16:00,
2013-09-21 12:18:00,78.1,50.4,29.91,South,183,3.6,3.6,38,0.00,,---,0.00,VWS V14.01,2013-09-21 16:18:00,
2013-09-21 12:20:00,78.1,50.4,29.91,ESE,113,3.1,3.6,38,0.00,,---,0.00,VWS V14.01,2013-09-21 16:20:00,
2013-09-21 12:21:00,78.1,50.4,29.91,ESE,113,3.1,3.1,38,0.00,,---,0.00,VWS V14.01,2013-09-21 16:21:00,
2013-09-21 12:23:00,78.3,50.6,29.91,SE,134,3.1,3.1,38,0.00,,---,0.00,VWS V14.01,2013-09-21 16:23:00,
2013-09-21 12:25:00,78.8,50.4,29.91,SSE,160,3.6,4.9,37,0.00,,---,0.00,VWS V14.01,2013-09-21 16:25:00,
2013-09-21 12:26:00,79.0,50.5,29.91,ESE,120,4.0,4.0,37,0.00,,---,0.00,VWS V14.01,2013-09-21 16:26:00,
2013-09-21 12:29:00,79.0,50.5,29.91,SE,139,5.8,5.8,37,0.00,,---,0.00,VWS V14.01,2013-09-21 16:29:00,
2013-09-21 12:30:00,79.0,50.5,29.91,South,178,6.3,6.3,37,0.00,,---,0.00,VWS V14.01,2013-09-21 16:30:00,
2013-09-21 12:31:00,79.0,50.5,29.91,SSE,165,5.4,6.3,37,0.00,,---,0.00,VWS V14.01,2013-09-21 16:31:00,
2013-09-21 12:32:00,79.0,50.5,29.91,SSE,165,5.4,5.4,37,0.00,,---,0.00,VWS V14.01,2013-09-21 16:32:00,
2013-09-21 12:34:00,79.0,50.5,29.91,SE,144,3.6,3.6,37,0.00,,---,0.00,VWS V14.01,2013-09-21 16:34:00,
2013-09-21 12:35:00,79.0,50.5,29.91,South,174,0.0,2.7,37,0.00,,---,0.00,VWS V14.01,2013-09-21 16:35:00,
2013-09-21 12:36:00,79.9,49.8,29.91,South,182,2.2,2.7,35,0.00,,---,0.00,VWS V14.01,2013-09-21 16:36:00,
2013-09-21 12:37:00,79.9,49.8,29.91,SSE,161,3.6,3.6,35,0.00,,---,0.00,VWS V14.01,2013-09-21 16:37:00,
2013-09-21 12:39:00,79.7,49.7,29.91,South,189,5.8,5.8,35,0.00,,---,0.00,VWS V14.01,2013-09-21 16:39:00,
2013-09-21 12:40:00,79.7,48.9,29.88,South,189,5.8,5.8,34,0.00,,---,0.00,VWS V14.01,2013-09-21 16:40:00,
2013-09-21 12:41:00,79.7,48.9,29.88,South,189,5.8,5.8,34,0.00,,---,0.00,VWS V14.01,2013-09-21 16:41:00,
2013-09-21 12:42:00,79.7,48.9,29.88,SSW,199,4.9,4.9,34,0.00,,---,0.00,VWS V14.01,2013-09-21 16:42:00,
2013-09-21 12:44:00,79.7,48.9,29.88,South,180,3.1,4.9,34,0.00,,---,0.00,VWS V14.01,2013-09-21 16:44:00,
2013-09-21 12:46:00,79.5,48.7,29.88,SW,235,0.0,3.1,34,0.00,,---,0.00,VWS V14.01,2013-09-21 16:46:00,
2013-09-21 12:47:00,79.5,48.7,29.88,South,171,10.1,10.1,34,0.00,,---,0.00,VWS V14.01,2013-09-21 16:47:00,
2013-09-21 12:49:00,79.5,48.7,29.88,South,184,2.7,3.6,34,0.00,,---,0.00,VWS V14.01,2013-09-21 16:49:00,
2013-09-21 12:51:00,79.5,48.7,29.88,South,171,5.8,5.8,34,0.00,,---,0.00,VWS V14.01,2013-09-21 16:51:00,
2013-09-21 12:52:00,79.5,48.7,29.88,South,171,5.8,5.8,34,0.00,,---,0.00,VWS V14.01,2013-09-21 16:52:00,
2013-09-21 12:54:00,79.5,48.7,29.88,SSE,156,3.6,3.6,34,0.00,,---,0.00,VWS V14.01,2013-09-21 16:54:00,
2013-09-21 12:56:00,78.8,48.1,29.88,South,183,4.0,4.0,34,0.00,,---,0.00,VWS V14.01,2013-09-21 16:56:00,
2013-09-21 12:57:00,78.8,48.1,29.88,South,182,2.7,2.7,34,0.00,,---,0.00,VWS V14.01,2013-09-21 16:57:00,
2013-09-21 12:59:00,78.3,48.4,29.88,South,182,2.7,2.7,35,0.00,,---,0.00,VWS V14.01,2013-09-21 16:59:00,
2013-09-21 13:01:00,78.3,48.4,29.88,SE,139,4.0,4.0,35,0.00,,---,0.00,VWS V14.01,2013-09-21 17:01:00,
2013-09-21 13:02:00,78.3,48.4,29.88,SW,214,2.2,4.0,35,0.00,,---,0.00,VWS V14.01,2013-09-21 17:02:00,
2013-09-21 13:04:00,77.9,48.8,29.88,SSE,162,4.9,5.4,36,0.00,,---,0.00,VWS V14.01,2013-09-21 17:04:00,
2013-09-21 13:06:00,77.7,49.4,29.88,SSW,208,3.1,4.9,37,0.00,,---,0.00,VWS V14.01,2013-09-21 17:06:00,
2013-09-21 13:07:00,77.5,49.2,29.88,South,170,2.7,2.7,37,0.00,,---,0.00,VWS V14.01,2013-09-21 17:07:00,
2013-09-21 13:09:00,77.5,49.2,29.88,South,170,2.7,2.7,37,0.00,,---,0.00,VWS V14.01,2013-09-21 17:09:00,
2013-09-21 13:11:00,77.5,49.2,29.88,ESE,110,3.6,3.6,37,0.00,,---,0.00,VWS V14.01,2013-09-21 17:11:00,
2013-09-21 13:13:00,77.4,49.1,29.88,SSE,147,2.7,3.6,37,0.00,,---,0.00,VWS V14.01,2013-09-21 17:13:00,
2013-09-21 13:14:00,77.4,49.1,29.88,South,171,4.9,4.9,37,0.00,,---,0.00,VWS V14.01,2013-09-21 17:14:00,
2013-09-21 13:16:00,77.4,49.1,29.88,South,190,3.1,5.8,37,0.00,,---,0.00,VWS V14.01,2013-09-21 17:16:00,
2013-09-21 13:18:00,77.5,50.7,29.88,SE,131,4.0,4.0,39,0.00,,---,0.00,VWS V14.01,2013-09-21 17:18:00,
2013-09-21 13:19:00,77.5,50.0,29.88,SSW,210,2.7,2.7,38,0.00,,---,0.00,VWS V14.01,2013-09-21 17:19:00,
2013-09-21 13:21:00,77.4,49.8,29.88,NW,304,2.2,2.2,38,0.00,,---,0.00,VWS V14.01,2013-09-21 17:21:00,
2013-09-21 13:22:00,77.4,49.8,29.88,NW,304,2.2,2.2,38,0.00,,---,0.00,VWS V14.01,2013-09-21 17:22:00,
2013-09-21 13:23:00,77.4,50.5,29.88,South,175,3.6,3.6,39,0.00,,---,0.00,VWS V14.01,2013-09-21 17:23:00,
2013-09-21 13:24:00,77.4,50.5,29.88,South,175,3.6,3.6,39,0.00,,---,0.00,VWS V14.01,2013-09-21 17:24:00,
2013-09-21 13:26:00,77.4,50.5,29.88,South,186,3.6,3.6,39,0.00,,---,0.00,VWS V14.01,2013-09-21 17:26:00,
2013-09-21 13:27:00,77.4,51.2,29.88,South,186,3.6,3.6,40,0.00,,---,0.00,VWS V14.01,2013-09-21 17:27:00,
2013-09-21 13:28:00,77.4,51.2,29.88,WSW,244,2.7,2.7,40,0.00,,---,0.00,VWS V14.01,2013-09-21 17:28:00,
2013-09-21 13:29:00,77.4,51.2,29.88,South,172,0.0,0.0,40,0.00,,---,0.00,VWS V14.01,2013-09-21 17:29:00,
2013-09-21 13:31:00,77.7,52.2,29.88,WSW,246,0.0,0.0,41,0.00,,---,0.00,VWS V14.01,2013-09-21 17:31:00,
2013-09-21 13:32:00,77.7,52.2,29.88,WSW,246,0.0,0.0,41,0.00,,---,0.00,VWS V14.01,2013-09-21 17:32:00,
2013-09-21 13:33:00,77.7,52.2,29.88,WSW,246,0.0,0.0,41,0.00,,---,0.00,VWS V14.01,2013-09-21 17:33:00,
2013-09-21 13:34:00,77.9,52.3,29.88,SE,140,5.4,7.6,41,0.00,,---,0.00,VWS V14.01,2013-09-21 17:34:00,
2013-09-21 13:36:00,77.9,52.3,29.88,SSE,162,4.9,5.4,41,0.00,,---,0.00,VWS V14.01,2013-09-21 17:36:00,
2013-09-21 13:37:00,78.3,52.7,29.88,SSE,157,6.3,6.3,41,0.00,,---,0.00,VWS V14.01,2013-09-21 17:37:00,
2013-09-21 13:38:00,78.4,52.8,29.88,South,169,3.1,3.1,41,0.00,,---,0.00,VWS V14.01,2013-09-21 17:38:00,
2013-09-21 13:39:00,78.4,52.8,29.88,South,169,5.8,5.8,41,0.00,,---,0.00,VWS V14.01,2013-09-21 17:39:00,
2013-09-21 13:41:00,79.0,52.6,29.88,SSE,166,4.0,4.0,40,0.00,,---,0.00,VWS V14.01,2013-09-21 17:41:00,
2013-09-21 13:42:00,79.0,52.6,29.88,SSE,166,4.0,4.0,40,0.00,,---,0.00,VWS V14.01,2013-09-21 17:42:00,
2013-09-21 13:44:00,79.2,52.1,29.88,WSW,245,3.6,3.6,39,0.00,,---,0.00,VWS V14.01,2013-09-21 17:44:00,
2013-09-21 13:46:00,79.2,51.4,29.88,SW,216,2.2,2.2,38,0.00,,---,0.00,VWS V14.01,2013-09-21 17:46:00,
2013-09-21 13:47:00,78.8,50.4,29.88,SW,216,2.2,2.2,37,0.00,,---,0.00,VWS V14.01,2013-09-21 17:47:00,
2013-09-21 13:49:00,78.8,50.4,29.88,SW,216,2.2,2.2,37,0.00,,---,0.00,VWS V14.01,2013-09-21 17:49:00,
2013-09-21 13:52:00,78.3,50.6,29.88,SW,216,2.2,2.2,38,0.00,,---,0.00,VWS V14.01,2013-09-21 17:52:00,
2013-09-21 13:54:00,78.3,51.3,29.88,SW,216,2.2,2.2,39,0.00,,---,0.00,VWS V14.01,2013-09-21 17:54:00,
2013-09-21 13:57:00,78.3,51.3,29.88,West,268,3.6,3.6,39,0.00,,---,0.00,VWS V14.01,2013-09-21 17:57:00,
2013-09-21 13:59:00,78.1,50.4,29.88,SW,225,4.0,4.0,38,0.00,,---,0.00,VWS V14.01,2013-09-21 17:59:00,
2013-09-21 14:00:00,78.1,50.4,29.88,West,261,3.1,4.9,38,0.00,,---,0.00,VWS V14.01,2013-09-21 18:00:00,
2013-09-21 14:02:00,78.1,50.4,29.88,SSW,209,0.0,3.1,38,0.00,,---,0.00,VWS V14.01,2013-09-21 18:02:00,
2013-09-21 14:04:00,78.3,51.3,29.88,SSW,195,3.1,4.0,39,0.00,,---,0.00,VWS V14.01,2013-09-21 18:04:00,
2013-09-21 14:05:00,78.3,51.3,29.88,SSW,195,3.1,3.1,39,0.00,,---,0.00,VWS V14.01,2013-09-21 18:05:00,
2013-09-21 14:07:00,78.3,52.0,29.88,WNW,297,2.7,3.1,40,0.00,,---,0.00,VWS V14.01,2013-09-21 18:07:00,
2013-09-21 14:09:00,78.4,51.5,29.88,ENE,78,2.7,2.7,39,0.00,,---,0.00,VWS V14.01,2013-09-21 18:09:00,
2013-09-21 14:10:00,78.4,51.5,29.88,SE,145,3.6,3.6,39,0.00,,---,0.00,VWS V14.01,2013-09-21 18:10:00,
2013-09-21 14:12:00,78.3,51.3,29.85,ESE,106,0.0,0.0,39,0.00,,---,0.00,VWS V14.01,2013-09-21 18:12:00,
2013-09-21 14:13:00,78.3,51.3,29.85,ESE,118,0.0,0.0,39,0.00,,---,0.00,VWS V14.01,2013-09-21 18:13:00,
2013-09-21 14:14:00,78.3,51.3,29.85,South,173,2.2,2.2,39,0.00,,---,0.00,VWS V14.01,2013-09-21 18:14:00,
2013-09-21 14:15:00,78.4,52.1,29.85,South,173,2.2,2.2,40,0.00,,---,0.00,VWS V14.01,2013-09-21 18:15:00,
2013-09-21 14:17:00,78.4,52.1,29.85,SSW,196,0.0,5.4,40,0.00,,---,0.00,VWS V14.01,2013-09-21 18:17:00,
2013-09-21 14:18:00,78.4,52.1,29.85,SSW,196,0.0,0.0,40,0.00,,---,0.00,VWS V14.01,2013-09-21 18:18:00,
2013-09-21 14:20:00,77.9,51.0,29.85,NW,317,0.0,0.0,39,0.00,,---,0.00,VWS V14.01,2013-09-21 18:20:00,
2013-09-21 14:22:00,77.9,51.0,29.85,South,181,2.7,2.7,39,0.00,,---,0.00,VWS V14.01,2013-09-21 18:22:00,
2013-09-21 14:23:00,77.9,51.0,29.85,ESE,111,2.7,2.7,39,0.00,,---,0.00,VWS V14.01,2013-09-21 18:23:00,
2013-09-21 14:25:00,77.7,51.5,29.85,SSE,158,2.7,2.7,40,0.00,,---,0.00,VWS V14.01,2013-09-21 18:25:00,
2013-09-21 14:27:00,77.5,51.3,29.85,SE,137,2.7,5.8,40,0.00,,---,0.00,VWS V14.01,2013-09-21 18:27:00,
2013-09-21 14:28:00,77.4,51.2,29.85,SSW,198,3.6,3.6,40,0.00,,---,0.00,VWS V14.01,2013-09-21 18:28:00,
2013-09-21 14:30:00,77.0,50.9,29.85,SW,227,0.0,0.0,40,0.00,,---,0.00,VWS V14.01,2013-09-21 18:30:00,
2013-09-21 14:32:00,76.8,51.4,29.85,South,191,0.0,0.0,41,0.00,,---,0.00,VWS V14.01,2013-09-21 18:32:00,
2013-09-21 14:33:00,76.8,51.4,29.85,SSE,165,0.0,0.0,41,0.00,,---,0.00,VWS V14.01,2013-09-21 18:33:00,
2013-09-21 14:35:00,76.6,51.8,29.85,South,173,0.0,0.0,42,0.00,,---,0.00,VWS V14.01,2013-09-21 18:35:00,
2013-09-21 14:37:00,76.6,51.8,29.85,ENE,60,0.0,0.0,42,0.00,,---,0.00,VWS V14.01,2013-09-21 18:37:00,
2013-09-21 14:38:00,76.6,51.8,29.85,SW,221,0.0,0.0,42,0.00,,---,0.00,VWS V14.01,2013-09-21 18:38:00,
2013-09-21 14:40:00,76.1,52.0,29.85,SE,140,2.2,2.2,43,0.00,,---,0.00,VWS V14.01,2013-09-21 18:40:00,
2013-09-21 14:41:00,76.1,52.0,29.85,SE,140,2.2,2.2,43,0.00,,---,0.00,VWS V14.01,2013-09-21 18:41:00,
2013-09-21 14:42:00,76.1,52.0,29.85,South,191,0.0,2.2,43,0.00,,---,0.00,VWS V14.01,2013-09-21 18:42:00,
2013-09-21 14:43:00,75.9,51.8,29.85,SE,145,4.9,4.9,43,0.00,,---,0.00,VWS V14.01,2013-09-21 18:43:00,
2013-09-21 14:45:00,75.7,51.7,29.85,SSE,149,0.0,0.0,43,0.00,,---,0.00,VWS V14.01,2013-09-21 18:45:00,
2013-09-21 14:46:00,75.7,51.7,29.85,SSW,212,2.7,2.7,43,0.00,,---,0.00,VWS V14.01,2013-09-21 18:46:00,
2013-09-21 14:47:00,75.7,51.7,29.85,SSW,195,2.7,5.4,43,0.00,,---,0.00,VWS V14.01,2013-09-21 18:47:00,
2013-09-21 14:49:00,75.7,51.7,29.85,SSW,197,2.7,4.9,43,0.00,,---,0.00,VWS V14.01,2013-09-21 18:49:00,
2013-09-21 14:50:00,75.2,51.8,29.85,SE,144,2.7,2.7,44,0.00,,---,0.00,VWS V14.01,2013-09-21 18:50:00,
2013-09-21 14:51:00,75.2,51.8,29.85,SSW,203,2.7,2.7,44,0.00,,---,0.00,VWS V14.01,2013-09-21 18:51:00,
2013-09-21 14:52:00,75.2,51.8,29.85,SE,126,0.0,2.7,44,0.00,,---,0.00,VWS V14.01,2013-09-21 18:52:00,
2013-09-21 14:54:00,75.0,52.3,29.85,South,175,2.7,2.7,45,0.00,,---,0.00,VWS V14.01,2013-09-21 18:54:00,
2013-09-21 14:55:00,75.0,52.3,29.85,South,175,2.7,2.7,45,0.00,,---,0.00,VWS V14.01,2013-09-21 18:55:00,
2013-09-21 14:56:00,75.0,52.3,29.85,South,175,2.7,2.7,45,0.00,,---,0.00,VWS V14.01,2013-09-21 18:56:00,
2013-09-21 14:57:00,74.7,51.9,29.85,South,175,2.7,2.7,45,0.00,,---,0.00,VWS V14.01,2013-09-21 18:57:00,
2013-09-21 14:59:00,74.7,51.9,29.85,South,175,2.7,2.7,45,0.00,,---,0.00,VWS V14.01,2013-09-21 18:59:00,
2013-09-21 15:00:00,73.9,52.5,29.85,ENE,77,2.7,2.7,47,0.00,,---,0.00,VWS V14.01,2013-09-21 19:00:00,
2013-09-21 15:01:00,73.8,52.3,29.85,SSW,194,2.2,2.7,47,0.00,,---,0.00,VWS V14.01,2013-09-21 19:01:00,
2013-09-21 15:02:00,73.8,52.3,29.85,SSW,194,0.0,0.0,47,0.00,,---,0.00,VWS V14.01,2013-09-21 19:02:00,
2013-09-21 15:04:00,73.2,52.4,29.85,SSE,165,0.0,0.0,48,0.00,,---,0.00,VWS V14.01,2013-09-21 19:04:00,
2013-09-21 15:05:00,73.0,52.2,29.85,SSE,165,0.0,0.0,48,0.00,,---,0.00,VWS V14.01,2013-09-21 19:05:00,
2013-09-21 15:06:00,73.0,52.2,29.85,SSE,165,0.0,0.0,48,0.00,,---,0.00,VWS V14.01,2013-09-21 19:06:00,
2013-09-21 15:07:00,73.0,52.2,29.85,SSE,165,0.0,0.0,48,0.00,,---,0.00,VWS V14.01,2013-09-21 19:07:00,
2013-09-21 15:09:00,72.5,52.3,29.85,SSE,166,0.0,0.0,49,0.00,,---,0.00,VWS V14.01,2013-09-21 19:09:00,
2013-09-21 15:10:00,72.3,52.7,29.85,SSE,166,0.0,0.0,50,0.00,,---,0.00,VWS V14.01,2013-09-21 19:10:00,
2013-09-21 15:11:00,72.3,52.7,29.85,South,172,0.0,0.0,50,0.00,,---,0.00,VWS V14.01,2013-09-21 19:11:00,
2013-09-21 15:12:00,72.1,52.5,29.85,SSW,207,0.0,0.0,50,0.00,,---,0.00,VWS V14.01,2013-09-21 19:12:00,
2013-09-21 15:14:00,72.1,53.0,29.85,SSW,207,0.0,0.0,51,0.00,,---,0.00,VWS V14.01,2013-09-21 19:14:00,
2013-09-21 15:15:00,72.1,53.6,29.85,SSW,207,0.0,0.0,52,0.00,,---,0.00,VWS V14.01,2013-09-21 19:15:00,
2013-09-21 15:16:00,72.1,53.6,29.85,SSW,207,0.0,0.0,52,0.00,,---,0.00,VWS V14.01,2013-09-21 19:16:00,
2013-09-21 15:17:00,72.1,53.6,29.85,SSW,207,0.0,0.0,52,0.00,,---,0.00,VWS V14.01,2013-09-21 19:17:00,
2013-09-21 15:19:00,72.0,53.4,29.85,SSW,207,0.0,0.0,52,0.00,,---,0.00,VWS V14.01,2013-09-21 19:19:00,
2013-09-21 15:20:00,72.0,53.9,29.85,SSW,207,0.0,0.0,53,0.00,,---,0.00,VWS V14.01,2013-09-21 19:20:00,
2013-09-21 15:21:00,72.0,53.9,29.85,SSW,207,0.0,0.0,53,0.00,,---,0.00,VWS V14.01,2013-09-21 19:21:00,
2013-09-21 15:22:00,72.0,53.9,29.85,SSW,207,0.0,0.0,53,0.00,,---,0.00,VWS V14.01,2013-09-21 19:22:00,
2013-09-21 15:23:00,72.0,53.9,29.85,SSW,207,0.0,0.0,53,0.00,,---,0.00,VWS V14.01,2013-09-21 19:23:00,
2013-09-21 15:24:00,72.0,53.9,29.85,SSW,207,0.0,0.0,53,0.00,,---,0.00,VWS V14.01,2013-09-21 19:24:00,
2013-09-21 15:25:00,72.0,54.4,29.85,SSW,207,0.0,0.0,54,0.00,,---,0.00,VWS V14.01,2013-09-21 19:25:00,
2013-09-21 15:27:00,72.1,55.1,29.85,SSW,207,0.0,0.0,55,0.00,,---,0.00,VWS V14.01,2013-09-21 19:27:00,
2013-09-21 15:28:00,72.1,55.1,29.85,SSW,207,0.0,0.0,55,0.00,,---,0.00,VWS V14.01,2013-09-21 19:28:00,
2013-09-21 15:30:00,72.1,55.1,29.85,SSW,207,0.0,0.0,55,0.00,,---,0.00,VWS V14.01,2013-09-21 19:30:00,
2013-09-21 15:32:00,72.1,55.6,29.85,SSW,207,0.0,0.0,56,0.00,,---,0.00,VWS V14.01,2013-09-21 19:32:00,
2013-09-21 15:33:00,72.1,55.6,29.85,SSW,207,0.0,0.0,56,0.00,,---,0.00,VWS V14.01,2013-09-21 19:33:00,
2013-09-21 15:35:00,72.1,55.6,29.85,SSW,207,0.0,0.0,56,0.00,,---,0.00,VWS V14.01,2013-09-21 19:35:00,
2013-09-21 15:37:00,72.1,55.6,29.85,SSW,207,0.0,0.0,56,0.00,,---,0.00,VWS V14.01,2013-09-21 19:37:00,
2013-09-21 15:38:00,72.3,56.2,29.85,SSW,207,0.0,0.0,57,0.00,,---,0.00,VWS V14.01,2013-09-21 19:38:00,
2013-09-21 15:40:00,72.5,56.9,29.85,SSW,207,0.0,0.0,58,0.00,,---,0.00,VWS V14.01,2013-09-21 19:40:00,
2013-09-21 15:42:00,72.5,56.9,29.85,SSW,207,0.0,0.0,58,0.00,,---,0.00,VWS V14.01,2013-09-21 19:42:00,
2013-09-21 15:43:00,72.7,57.1,29.85,South,173,0.0,0.0,58,0.00,,---,0.00,VWS V14.01,2013-09-21 19:43:00,
2013-09-21 15:45:00,72.7,57.1,29.85,SSE,160,3.1,3.1,58,0.00,,---,0.00,VWS V14.01,2013-09-21 19:45:00,
2013-09-21 15:46:00,72.7,57.1,29.85,SSE,160,2.2,2.2,58,0.00,,---,0.00,VWS V14.01,2013-09-21 19:46:00,
2013-09-21 15:47:00,72.7,57.5,29.85,South,188,2.7,2.7,59,0.00,,---,0.00,VWS V14.01,2013-09-21 19:47:00,
2013-09-21 15:48:00,72.7,57.5,29.85,South,188,0.0,2.7,59,0.00,,---,0.00,VWS V14.01,2013-09-21 19:48:00,
2013-09-21 15:50:00,72.7,57.5,29.85,SSW,200,2.2,2.7,59,0.00,,---,0.00,VWS V14.01,2013-09-21 19:50:00,
2013-09-21 15:51:00,72.7,57.5,29.85,SSW,200,0.0,2.2,59,0.00,,---,0.00,VWS V14.01,2013-09-21 19:51:00,
2013-09-21 15:52:00,72.7,57.5,29.85,SSW,200,0.0,0.0,59,0.00,,---,0.00,VWS V14.01,2013-09-21 19:52:00,
2013-09-21 15:53:00,72.7,57.5,29.83,SSW,200,0.0,0.0,59,0.00,,---,0.00,VWS V14.01,2013-09-21 19:53:00,
2013-09-21 15:55:00,72.7,57.5,29.83,South,176,0.0,0.0,59,0.00,,---,0.00,VWS V14.01,2013-09-21 19:55:00,
2013-09-21 15:56:00,72.7,58.0,29.83,South,186,0.0,0.0,60,0.00,,---,0.00,VWS V14.01,2013-09-21 19:56:00,
2013-09-21 15:57:00,72.7,58.0,29.83,SE,141,2.2,2.2,60,0.00,,---,0.00,VWS V14.01,2013-09-21 19:57:00,
2013-09-21 15:58:00,72.7,58.0,29.83,SSE,153,2.7,2.7,60,0.00,,---,0.00,VWS V14.01,2013-09-21 19:58:00,
2013-09-21 16:00:00,72.7,58.0,29.83,South,180,2.2,2.2,60,0.00,,---,0.00,VWS V14.01,2013-09-21 20:00:00,
2013-09-21 16:01:00,72.7,58.0,29.83,South,180,0.0,2.2,60,0.00,,---,0.00,VWS V14.01,2013-09-21 20:01:00,
2013-09-21 16:02:00,72.7,58.0,29.83,South,180,0.0,0.0,60,0.00,,---,0.00,VWS V14.01,2013-09-21 20:02:00,
2013-09-21 16:03:00,72.7,58.0,29.83,South,180,0.0,0.0,60,0.00,,---,0.00,VWS V14.01,2013-09-21 20:03:00,
2013-09-21 16:05:00,72.7,58.5,29.83,South,180,0.0,0.0,61,0.00,,---,0.00,VWS V14.01,2013-09-21 20:05:00,
2013-09-21 16:06:00,72.7,58.5,29.83,South,180,0.0,0.0,61,0.00,,---,0.00,VWS V14.01,2013-09-21 20:06:00,
2013-09-21 16:07:00,72.7,58.5,29.83,South,180,0.0,0.0,61,0.00,,---,0.00,VWS V14.01,2013-09-21 20:07:00,
2013-09-21 16:08:00,72.7,58.5,29.83,South,180,0.0,0.0,61,0.00,,---,0.00,VWS V14.01,2013-09-21 20:08:00,
2013-09-21 16:10:00,72.7,58.5,29.83,South,180,0.0,0.0,61,0.00,,---,0.00,VWS V14.01,2013-09-21 20:10:00,
2013-09-21 16:11:00,72.7,58.5,29.83,South,180,0.0,0.0,61,0.00,,---,0.00,VWS V14.01,2013-09-21 20:11:00,
2013-09-21 16:13:00,72.7,58.5,29.83,South,180,0.0,0.0,61,0.00,,---,0.00,VWS V14.01,2013-09-21 20:13:00,
2013-09-21 16:15:00,72.7,58.5,29.83,South,180,0.0,0.0,61,0.00,,---,0.00,VWS V14.01,2013-09-21 20:15:00,
2013-09-21 16:16:00,72.7,58.5,29.83,South,180,0.0,0.0,61,0.00,,---,0.00,VWS V14.01,2013-09-21 20:16:00,
2013-09-21 16:18:00,72.7,58.5,29.83,South,180,0.0,0.0,61,0.00,,---,0.00,VWS V14.01,2013-09-21 20:18:00,
2013-09-21 16:20:00,72.7,58.5,29.83,South,180,0.0,0.0,61,0.00,,---,0.00,VWS V14.01,2013-09-21 20:20:00,
2013-09-21 16:21:00,72.7,58.5,29.83,South,180,0.0,0.0,61,0.00,,---,0.00,VWS V14.01,2013-09-21 20:21:00,
2013-09-21 16:23:00,72.7,58.5,29.83,South,180,0.0,0.0,61,0.00,,---,0.00,VWS V14.01,2013-09-21 20:23:00,
2013-09-21 16:25:00,72.7,58.5,29.83,South,180,0.0,0.0,61,0.00,,---,0.00,VWS V14.01,2013-09-21 20:25:00,
2013-09-21 16:26:00,72.7,58.5,29.83,South,180,0.0,0.0,61,0.00,,---,0.00,VWS V14.01,2013-09-21 20:26:00,
2013-09-21 16:28:00,72.7,59.4,29.83,South,180,0.0,0.0,63,0.00,,---,0.00,VWS V14.01,2013-09-21 20:28:00,
2013-09-21 16:31:00,72.7,59.4,29.83,South,180,0.0,0.0,63,0.00,,---,0.00,VWS V14.01,2013-09-21 20:31:00,
2013-09-21 16:33:00,72.7,59.4,29.83,South,180,0.0,0.0,63,0.00,,---,0.00,VWS V14.01,2013-09-21 20:33:00,
2013-09-21 16:36:00,72.7,59.4,29.83,South,180,0.0,0.0,63,0.00,,---,0.00,VWS V14.01,2013-09-21 20:36:00,
2013-09-21 16:38:00,72.7,59.4,29.83,South,180,0.0,0.0,63,0.00,,---,0.00,VWS V14.01,2013-09-21 20:38:00,
2013-09-21 16:41:00,72.7,59.4,29.83,South,180,0.0,0.0,63,0.00,,---,0.00,VWS V14.01,2013-09-21 20:41:00,
2013-09-21 16:42:00,72.7,59.4,29.83,South,180,0.0,0.0,63,0.00,,---,0.00,VWS V14.01,2013-09-21 20:42:00,
2013-09-21 16:43:00,72.9,60.0,29.83,South,180,0.0,0.0,64,0.00,,---,0.00,VWS V14.01,2013-09-21 20:43:00,
2013-09-21 16:46:00,72.9,60.0,29.83,South,180,0.0,0.0,64,0.00,,---,0.00,VWS V14.01,2013-09-21 20:46:00,
2013-09-21 16:47:00,72.9,60.0,29.83,South,180,0.0,0.0,64,0.00,,---,0.00,VWS V14.01,2013-09-21 20:47:00,
2013-09-21 16:48:00,72.9,60.0,29.83,South,180,0.0,0.0,64,0.00,,---,0.00,VWS V14.01,2013-09-21 20:48:00,
2013-09-21 16:51:00,72.9,60.0,29.83,South,180,0.0,0.0,64,0.00,,---,0.00,VWS V14.01,2013-09-21 20:51:00,
2013-09-21 16:52:00,72.9,60.0,29.83,South,180,0.0,0.0,64,0.00,,---,0.00,VWS V14.01,2013-09-21 20:52:00,
2013-09-21 16:53:00,72.9,60.0,29.83,South,180,0.0,0.0,64,0.00,,---,0.00,VWS V14.01,2013-09-21 20:53:00,
2013-09-21 16:54:00,72.9,60.0,29.83,South,180,0.0,0.0,64,0.00,,---,0.00,VWS V14.01,2013-09-21 20:54:00,
2013-09-21 16:56:00,72.9,60.0,29.83,South,180,0.0,0.0,64,0.00,,---,0.00,VWS V14.01,2013-09-21 20:56:00,
2013-09-21 16:57:00,72.9,60.4,29.83,South,180,0.0,0.0,65,0.00,,---,0.00,VWS V14.01,2013-09-21 20:57:00,
2013-09-21 16:58:00,72.9,60.4,29.83,South,180,0.0,0.0,65,0.00,,---,0.00,VWS V14.01,2013-09-21 20:58:00,
2013-09-21 16:59:00,72.9,60.4,29.83,South,180,0.0,0.0,65,0.00,,---,0.00,VWS V14.01,2013-09-21 20:59:00,
2013-09-21 17:01:00,72.9,60.4,29.83,South,180,0.0,0.0,65,0.00,,---,0.00,VWS V14.01,2013-09-21 21:01:00,
2013-09-21 17:02:00,72.9,60.4,29.83,South,180,0.0,0.0,65,0.00,,---,0.00,VWS V14.01,2013-09-21 21:02:00,
2013-09-21 17:03:00,72.9,60.4,29.83,South,180,0.0,0.0,65,0.00,,---,0.00,VWS V14.01,2013-09-21 21:03:00,
2013-09-21 17:04:00,72.9,60.4,29.83,South,180,0.0,0.0,65,0.00,,---,0.00,VWS V14.01,2013-09-21 21:04:00,
2013-09-21 17:06:00,72.9,60.8,29.83,South,180,0.0,0.0,66,0.00,,---,0.00,VWS V14.01,2013-09-21 21:06:00,
2013-09-21 17:07:00,72.9,60.8,29.83,South,180,0.0,0.0,66,0.00,,---,0.00,VWS V14.01,2013-09-21 21:07:00,
2013-09-21 17:08:00,73.0,61.0,29.83,South,180,0.0,0.0,66,0.00,,---,0.00,VWS V14.01,2013-09-21 21:08:00,
2013-09-21 17:09:00,73.0,61.0,29.83,South,180,0.0,0.0,66,0.00,,---,0.00,VWS V14.01,2013-09-21 21:09:00,
2013-09-21 17:11:00,73.0,61.0,29.83,South,180,0.0,0.0,66,0.00,,---,0.00,VWS V14.01,2013-09-21 21:11:00,
2013-09-21 17:12:00,73.0,61.0,29.83,South,180,0.0,0.0,66,0.00,,---,0.00,VWS V14.01,2013-09-21 21:12:00,
2013-09-21 17:13:00,73.0,61.0,29.83,South,180,0.0,0.0,66,0.00,,---,0.00,VWS V14.01,2013-09-21 21:13:00,
2013-09-21 17:14:00,73.0,61.0,29.83,SSW,195,0.0,0.0,66,0.00,,---,0.00,VWS V14.01,2013-09-21 21:14:00,
2013-09-21 17:16:00,73.0,61.5,29.83,SSW,195,0.0,0.0,67,0.00,,---,0.00,VWS V14.01,2013-09-21 21:16:00,
2013-09-21 17:17:00,73.0,61.5,29.83,SSW,195,0.0,0.0,67,0.00,,---,0.00,VWS V14.01,2013-09-21 21:17:00,
2013-09-21 17:18:00,73.0,61.5,29.83,SSW,195,0.0,0.0,67,0.00,,---,0.00,VWS V14.01,2013-09-21 21:18:00,
2013-09-21 17:19:00,73.0,61.5,29.83,SSW,195,0.0,0.0,67,0.00,,---,0.00,VWS V14.01,2013-09-21 21:19:00,
2013-09-21 17:22:00,73.2,61.6,29.83,SSW,195,0.0,0.0,67,0.00,,---,0.00,VWS V14.01,2013-09-21 21:22:00,
2013-09-21 17:23:00,73.2,61.6,29.83,SSW,195,0.0,0.0,67,0.00,,---,0.00,VWS V14.01,2013-09-21 21:23:00,
2013-09-21 17:24:00,73.2,61.6,29.83,South,169,0.0,0.0,67,0.00,,---,0.00,VWS V14.01,2013-09-21 21:24:00,
2013-09-21 17:27:00,73.4,62.2,29.83,South,169,0.0,0.0,68,0.00,,---,0.00,VWS V14.01,2013-09-21 21:27:00,
2013-09-21 17:28:00,73.4,62.2,29.83,South,169,0.0,0.0,68,0.00,,---,0.00,VWS V14.01,2013-09-21 21:28:00,
2013-09-21 17:29:00,73.4,62.2,29.83,South,169,0.0,0.0,68,0.00,,---,0.00,VWS V14.01,2013-09-21 21:29:00,
2013-09-21 17:30:00,73.4,61.8,29.83,South,169,0.0,0.0,67,0.00,,---,0.00,VWS V14.01,2013-09-21 21:30:00,
2013-09-21 17:32:00,73.6,62.0,29.83,South,186,0.0,0.0,67,0.00,,---,0.00,VWS V14.01,2013-09-21 21:32:00,
2013-09-21 17:33:00,73.6,62.0,29.83,South,186,0.0,0.0,67,0.00,,---,0.00,VWS V14.01,2013-09-21 21:33:00,
2013-09-21 17:34:00,73.6,62.0,29.83,South,186,0.0,0.0,67,0.00,,---,0.00,VWS V14.01,2013-09-21 21:34:00,
2013-09-21 17:35:00,73.6,62.0,29.83,South,186,0.0,0.0,67,0.00,,---,0.00,VWS V14.01,2013-09-21 21:35:00,
2013-09-21 17:37:00,73.6,62.4,29.83,South,186,0.0,0.0,68,0.00,,---,0.00,VWS V14.01,2013-09-21 21:37:00,
2013-09-21 17:38:00,73.6,62.4,29.83,South,186,0.0,0.0,68,0.00,,---,0.00,VWS V14.01,2013-09-21 21:38:00,
2013-09-21 17:39:00,73.6,62.4,29.83,South,186,0.0,0.0,68,0.00,,---,0.00,VWS V14.01,2013-09-21 21:39:00,
2013-09-21 17:40:00,73.6,62.4,29.83,South,186,0.0,0.0,68,0.00,,---,0.00,VWS V14.01,2013-09-21 21:40:00,
2013-09-21 17:42:00,73.6,62.4,29.83,South,186,0.0,0.0,68,0.00,,---,0.00,VWS V14.01,2013-09-21 21:42:00,
2013-09-21 17:43:00,73.8,62.5,29.83,South,186,0.0,0.0,68,0.00,,---,0.00,VWS V14.01,2013-09-21 21:43:00,
2013-09-21 17:44:00,73.8,62.5,29.83,South,186,0.0,0.0,68,0.00,,---,0.00,VWS V14.01,2013-09-21 21:44:00,
2013-09-21 17:45:00,73.8,62.5,29.83,South,186,0.0,0.0,68,0.00,,---,0.00,VWS V14.01,2013-09-21 21:45:00,
2013-09-21 17:47:00,73.8,62.5,29.83,South,186,0.0,0.0,68,0.00,,---,0.00,VWS V14.01,2013-09-21 21:47:00,
2013-09-21 17:48:00,73.8,62.5,29.83,South,186,0.0,0.0,68,0.00,,---,0.00,VWS V14.01,2013-09-21 21:48:00,
2013-09-21 17:49:00,73.8,62.5,29.83,South,186,0.0,0.0,68,0.00,,---,0.00,VWS V14.01,2013-09-21 21:49:00,
2013-09-21 17:50:00,73.8,62.5,29.83,South,186,0.0,0.0,68,0.00,,---,0.00,VWS V14.01,2013-09-21 21:50:00,
2013-09-21 17:52:00,73.8,62.5,29.83,SSW,203,0.0,0.0,68,0.00,,---,0.00,VWS V14.01,2013-09-21 21:52:00,
2013-09-21 17:53:00,73.8,62.5,29.83,SSW,203,0.0,0.0,68,0.00,,---,0.00,VWS V14.01,2013-09-21 21:53:00,
2013-09-21 17:54:00,73.8,62.5,29.83,South,178,0.0,0.0,68,0.00,,---,0.00,VWS V14.01,2013-09-21 21:54:00,
2013-09-21 17:55:00,73.8,62.5,29.83,South,178,0.0,0.0,68,0.00,,---,0.00,VWS V14.01,2013-09-21 21:55:00,
2013-09-21 17:57:00,73.8,62.5,29.83,SSW,192,0.0,0.0,68,0.00,,---,0.00,VWS V14.01,2013-09-21 21:57:00,
2013-09-21 17:58:00,73.8,62.5,29.83,SSW,192,0.0,0.0,68,0.00,,---,0.00,VWS V14.01,2013-09-21 21:58:00,
2013-09-21 17:59:00,73.8,62.5,29.83,SSW,192,0.0,0.0,68,0.00,,---,0.00,VWS V14.01,2013-09-21 21:59:00,
2013-09-21 18:00:00,73.8,62.5,29.83,SSW,192,0.0,0.0,68,0.00,,---,0.00,VWS V14.01,2013-09-21 22:00:00,
2013-09-21 18:03:00,73.6,62.4,29.83,SSW,192,0.0,0.0,68,0.00,,---,0.00,VWS V14.01,2013-09-21 22:03:00,
2013-09-21 18:04:00,73.6,62.4,29.83,SSW,209,0.0,0.0,68,0.00,,---,0.00,VWS V14.01,2013-09-21 22:04:00,
2013-09-21 18:05:00,73.6,62.4,29.83,SSW,209,0.0,0.0,68,0.00,,---,0.00,VWS V14.01,2013-09-21 22:05:00,
2013-09-21 18:08:00,73.6,62.4,29.83,SSW,203,0.0,0.0,68,0.00,,---,0.00,VWS V14.01,2013-09-21 22:08:00,
2013-09-21 18:09:00,73.6,62.4,29.83,SSW,195,0.0,0.0,68,0.00,,---,0.00,VWS V14.01,2013-09-21 22:09:00,
2013-09-21 18:10:00,73.6,62.4,29.83,SSW,195,0.0,0.0,68,0.00,,---,0.00,VWS V14.01,2013-09-21 22:10:00,
2013-09-21 18:13:00,73.6,62.4,29.83,SSW,195,0.0,0.0,68,0.00,,---,0.00,VWS V14.01,2013-09-21 22:13:00,
2013-09-21 18:14:00,73.6,62.4,29.83,South,185,0.0,0.0,68,0.00,,---,0.00,VWS V14.01,2013-09-21 22:14:00,
2013-09-21 18:15:00,73.6,62.4,29.83,South,185,0.0,0.0,68,0.00,,---,0.00,VWS V14.01,2013-09-21 22:15:00,
2013-09-21 18:18:00,73.4,62.2,29.83,South,185,0.0,0.0,68,0.00,,---,0.00,VWS V14.01,2013-09-21 22:18:00,
2013-09-21 18:19:00,73.4,62.2,29.83,South,185,0.0,0.0,68,0.00,,---,0.00,VWS V14.01,2013-09-21 22:19:00,
2013-09-21 18:20:00,73.4,62.2,29.83,South,169,2.7,2.7,68,0.00,,---,0.00,VWS V14.01,2013-09-21 22:20:00,
2013-09-21 18:23:00,73.4,62.2,29.83,South,169,2.7,2.7,68,0.00,,---,0.00,VWS V14.01,2013-09-21 22:23:00,
2013-09-21 18:24:00,73.2,62.5,29.83,SSW,204,0.0,0.0,69,0.00,,---,0.00,VWS V14.01,2013-09-21 22:24:00,
2013-09-21 18:25:00,73.2,62.5,29.83,SSW,204,0.0,0.0,69,0.00,,---,0.00,VWS V14.01,2013-09-21 22:25:00,
2013-09-21 18:28:00,73.2,62.5,29.83,SSW,204,0.0,0.0,69,0.00,,---,0.00,VWS V14.01,2013-09-21 22:28:00,
2013-09-21 18:30:00,73.2,62.5,29.83,South,182,0.0,0.0,69,0.00,,---,0.00,VWS V14.01,2013-09-21 22:30:00,
2013-09-21 18:33:00,73.2,62.5,29.83,SSE,162,0.0,0.0,69,0.00,,---,0.00,VWS V14.01,2013-09-21 22:33:00,
2013-09-21 18:34:00,73.2,62.5,29.83,SSW,196,0.0,0.0,69,0.00,,---,0.00,VWS V14.01,2013-09-21 22:34:00,
2013-09-21 18:35:00,73.2,62.5,29.83,SSW,196,0.0,0.0,69,0.00,,---,0.00,VWS V14.01,2013-09-21 22:35:00,
2013-09-21 18:38:00,73.2,62.5,29.83,South,183,0.0,0.0,69,0.00,,---,0.00,VWS V14.01,2013-09-21 22:38:00,
2013-09-21 18:39:00,73.2,62.5,29.83,South,183,0.0,0.0,69,0.00,,---,0.00,VWS V14.01,2013-09-21 22:39:00,
2013-09-21 18:40:00,73.0,62.3,29.83,SSW,196,0.0,0.0,69,0.00,,---,0.00,VWS V14.01,2013-09-21 22:40:00,
2013-09-21 18:43:00,73.0,62.3,29.83,South,188,0.0,0.0,69,0.00,,---,0.00,VWS V14.01,2013-09-21 22:43:00,
2013-09-21 18:44:00,73.0,62.3,29.83,South,188,0.0,0.0,69,0.00,,---,0.00,VWS V14.01,2013-09-21 22:44:00,
2013-09-21 18:45:00,73.0,62.3,29.83,South,188,0.0,0.0,69,0.00,,---,0.00,VWS V14.01,2013-09-21 22:45:00,
2013-09-21 18:48:00,73.0,62.3,29.83,South,188,0.0,0.0,69,0.00,,---,0.00,VWS V14.01,2013-09-21 22:48:00,
2013-09-21 18:49:00,73.0,62.3,29.83,South,188,0.0,0.0,69,0.00,,---,0.00,VWS V14.01,2013-09-21 22:49:00,
2013-09-21 18:50:00,73.0,62.3,29.83,South,186,0.0,0.0,69,0.00,,---,0.00,VWS V14.01,2013-09-21 22:50:00,
2013-09-21 18:51:00,73.0,62.3,29.83,South,186,0.0,0.0,69,0.00,,---,0.00,VWS V14.01,2013-09-21 22:51:00,
2013-09-21 18:53:00,73.0,62.3,29.80,South,182,0.0,0.0,69,0.00,,---,0.00,VWS V14.01,2013-09-21 22:53:00,
2013-09-21 18:54:00,73.0,62.3,29.80,South,182,0.0,0.0,69,0.00,,---,0.00,VWS V14.01,2013-09-21 22:54:00,
2013-09-21 18:55:00,73.0,62.3,29.80,SSE,152,3.1,3.1,69,0.00,,---,0.00,VWS V14.01,2013-09-21 22:55:00,
2013-09-21 18:56:00,73.0,62.3,29.80,SSE,152,3.1,3.1,69,0.00,,---,0.00,VWS V14.01,2013-09-21 22:56:00,
2013-09-21 18:58:00,73.0,62.3,29.80,South,170,0.0,0.0,69,0.00,,---,0.00,VWS V14.01,2013-09-21 22:58:00,
2013-09-21 18:59:00,73.0,62.3,29.80,South,170,0.0,0.0,69,0.00,,---,0.00,VWS V14.01,2013-09-21 22:59:00,
2013-09-21 19:00:00,73.0,62.3,29.80,South,170,0.0,0.0,69,0.00,,---,0.00,VWS V14.01,2013-09-21 23:00:00,
2013-09-21 19:01:00,73.0,62.3,29.80,South,170,0.0,0.0,69,0.00,,---,0.00,VWS V14.01,2013-09-21 23:01:00,
2013-09-21 19:03:00,73.0,62.3,29.80,South,170,0.0,0.0,69,0.00,,---,0.00,VWS V14.01,2013-09-21 23:03:00,
2013-09-21 19:04:00,73.0,62.3,29.80,South,170,0.0,0.0,69,0.00,,---,0.00,VWS V14.01,2013-09-21 23:04:00,
2013-09-21 19:05:00,73.0,62.7,29.80,South,170,0.0,0.0,70,0.00,,---,0.00,VWS V14.01,2013-09-21 23:05:00,
2013-09-21 19:06:00,73.0,62.7,29.80,South,170,0.0,0.0,70,0.00,,---,0.00,VWS V14.01,2013-09-21 23:06:00,
2013-09-21 19:08:00,73.0,62.7,29.80,South,170,0.0,0.0,70,0.00,,---,0.00,VWS V14.01,2013-09-21 23:08:00,
2013-09-21 19:09:00,73.0,62.7,29.80,South,170,0.0,0.0,70,0.00,,---,0.00,VWS V14.01,2013-09-21 23:09:00,
2013-09-21 19:11:00,73.0,62.7,29.80,South,170,0.0,0.0,70,0.00,,---,0.00,VWS V14.01,2013-09-21 23:11:00,
2013-09-21 19:13:00,73.0,62.7,29.80,SSW,197,0.0,0.0,70,0.00,,---,0.00,VWS V14.01,2013-09-21 23:13:00,
2013-09-21 19:14:00,73.0,62.7,29.80,SSW,197,0.0,0.0,70,0.00,,---,0.00,VWS V14.01,2013-09-21 23:14:00,
2013-09-21 19:16:00,73.0,62.7,29.80,South,178,0.0,0.0,70,0.00,,---,0.00,VWS V14.01,2013-09-21 23:16:00,
2013-09-21 19:18:00,73.0,62.7,29.80,SE,137,4.0,4.0,70,0.00,,---,0.00,VWS V14.01,2013-09-21 23:18:00,
2013-09-21 19:19:00,73.0,62.7,29.80,South,177,2.7,4.0,70,0.00,,---,0.00,VWS V14.01,2013-09-21 23:19:00,
2013-09-21 19:21:00,73.2,62.9,29.80,South,187,0.0,0.0,70,0.00,,---,0.00,VWS V14.01,2013-09-21 23:21:00,
2013-09-21 19:23:00,73.2,62.9,29.80,SSW,205,2.7,2.7,70,0.00,,---,0.00,VWS V14.01,2013-09-21 23:23:00,
2013-09-21 19:24:00,73.2,62.9,29.80,SSE,164,4.9,4.9,70,0.00,,---,0.00,VWS V14.01,2013-09-21 23:24:00,
2013-09-21 19:26:00,73.2,62.9,29.80,South,171,3.6,3.6,70,0.00,,---,0.00,VWS V14.01,2013-09-21 23:26:00,
2013-09-21 19:27:00,73.2,62.9,29.80,South,176,3.1,3.6,70,0.00,,---,0.00,VWS V14.01,2013-09-21 23:27:00,
2013-09-21 19:28:00,73.2,62.9,29.80,South,176,3.1,3.1,70,0.00,,---,0.00,VWS V14.01,2013-09-21 23:28:00,
2013-09-21 19:29:00,73.2,62.9,29.80,SSE,165,2.7,3.1,70,0.00,,---,0.00,VWS V14.01,2013-09-21 23:29:00,
2013-09-21 19:30:00,73.2,62.9,29.80,South,190,0.0,0.0,70,0.00,,---,0.00,VWS V14.01,2013-09-21 23:30:00,
2013-09-21 19:31:00,73.2,62.9,29.80,South,190,0.0,0.0,70,0.00,,---,0.00,VWS V14.01,2013-09-21 23:31:00,
2013-09-21 19:32:00,73.2,62.9,29.80,South,185,0.0,0.0,70,0.00,,---,0.00,VWS V14.01,2013-09-21 23:32:00,
2013-09-21 19:33:00,73.2,62.9,29.80,SSE,165,2.7,2.7,70,0.00,,---,0.00,VWS V14.01,2013-09-21 23:33:00,
2013-09-21 19:34:00,73.2,62.9,29.80,SSE,165,2.7,2.7,70,0.00,,---,0.00,VWS V14.01,2013-09-21 23:34:00,
2013-09-21 19:35:00,73.2,62.9,29.80,SSE,165,0.0,2.7,70,0.00,,---,0.00,VWS V14.01,2013-09-21 23:35:00,
2013-09-21 19:36:00,73.2,62.9,29.80,SE,146,5.4,5.4,70,0.00,,---,0.00,VWS V14.01,2013-09-21 23:36:00,
2013-09-21 19:37:00,73.2,62.9,29.80,South,177,3.1,3.1,70,0.00,,---,0.00,VWS V14.01,2013-09-21 23:37:00,
2013-09-21 19:38:00,73.2,62.9,29.80,SSW,200,2.7,2.7,70,0.00,,---,0.00,VWS V14.01,2013-09-21 23:38:00,
2013-09-21 19:39:00,73.2,62.9,29.80,SSW,200,2.7,2.7,70,0.00,,---,0.00,VWS V14.01,2013-09-21 23:39:00,
2013-09-21 19:40:00,73.4,63.0,29.80,SSW,200,2.7,2.7,70,0.00,,---,0.00,VWS V14.01,2013-09-21 23:40:00,
2013-09-21 19:41:00,73.4,63.0,29.80,South,177,3.6,3.6,70,0.00,,---,0.00,VWS V14.01,2013-09-21 23:41:00,
2013-09-21 19:42:00,73.4,63.0,29.80,SSE,166,4.0,4.0,70,0.00,,---,0.00,VWS V14.01,2013-09-21 23:42:00,
2013-09-21 19:43:00,73.4,63.0,29.80,SSE,166,4.0,4.0,70,0.00,,---,0.00,VWS V14.01,2013-09-21 23:43:00,
2013-09-21 19:44:00,73.4,63.0,29.80,SSE,166,4.0,4.0,70,0.00,,---,0.00,VWS V14.01,2013-09-21 23:44:00,
2013-09-21 19:45:00,73.4,63.0,29.80,SSE,158,2.2,4.0,70,0.00,,---,0.00,VWS V14.01,2013-09-21 23:45:00,
2013-09-21 19:46:00,73.4,63.0,29.80,SSW,192,3.1,3.1,70,0.00,,---,0.00,VWS V14.01,2013-09-21 23:46:00,
2013-09-21 19:47:00,73.4,63.0,29.80,SSE,155,6.3,6.3,70,0.00,,---,0.00,VWS V14.01,2013-09-21 23:47:00,
2013-09-21 19:48:00,73.6,63.2,29.80,South,189,2.7,6.3,70,0.00,,---,0.00,VWS V14.01,2013-09-21 23:48:00,
2013-09-21 19:49:00,73.6,63.2,29.80,SSE,167,3.6,3.6,70,0.00,,---,0.00,VWS V14.01,2013-09-21 23:49:00,
2013-09-21 19:50:00,73.6,63.2,29.80,South,171,4.9,4.9,70,0.00,,---,0.00,VWS V14.01,2013-09-21 23:50:00,
2013-09-21 19:51:00,73.6,63.2,29.80,South,170,3.6,4.9,70,0.00,,---,0.00,VWS V14.01,2013-09-21 23:51:00,
2013-09-21 19:52:00,73.6,63.2,29.80,SSE,149,0.0,0.0,70,0.00,,---,0.00,VWS V14.01,2013-09-21 23:52:00,
2013-09-21 19:54:00,73.6,63.2,29.80,South,172,4.0,4.0,70,0.00,,---,0.00,VWS V14.01,2013-09-21 23:54:00,
2013-09-21 19:55:00,73.6,63.2,29.80,South,183,5.4,5.4,70,0.00,,---,0.00,VWS V14.01,2013-09-21 23:55:00,
2013-09-21 19:56:00,73.6,63.2,29.80,South,187,2.7,5.4,70,0.00,,---,0.00,VWS V14.01,2013-09-21 23:56:00,
2013-09-21 19:57:00,73.6,63.2,29.80,South,187,2.7,3.6,70,0.00,,---,0.00,VWS V14.01,2013-09-21 23:57:00,
2013-09-21 19:59:00,73.6,63.2,29.80,South,182,0.0,2.7,70,0.00,,---,0.00,VWS V14.01,2013-09-21 23:59:00,
2013-09-21 20:00:00,73.8,63.4,29.80,South,182,4.9,4.9,70,0.00,,---,0.00,VWS V14.01,2013-09-22 00:00:00,
2013-09-21 20:01:00,73.8,63.4,29.80,SSW,204,0.0,4.9,70,0.00,,---,0.00,VWS V14.01,2013-09-22 00:01:00,
2013-09-21 20:02:00,73.8,63.4,29.80,South,186,3.1,3.1,70,0.00,,---,0.00,VWS V14.01,2013-09-22 00:02:00,
2013-09-21 20:04:00,73.8,63.4,29.80,SSE,155,3.6,3.6,70,0.00,,---,0.00,VWS V14.01,2013-09-22 00:04:00,
2013-09-21 20:05:00,73.8,63.0,29.80,SSE,155,3.6,3.6,69,0.00,,---,0.00,VWS V14.01,2013-09-22 00:05:00,
2013-09-21 20:06:00,73.8,63.0,29.80,South,183,3.6,3.6,69,0.00,,---,0.00,VWS V14.01,2013-09-22 00:06:00,
2013-09-21 20:07:00,73.8,63.0,29.80,South,183,3.6,3.6,69,0.00,,---,0.00,VWS V14.01,2013-09-22 00:07:00,
2013-09-21 20:09:00,73.8,63.0,29.80,SSE,154,3.6,3.6,69,0.00,,---,0.00,VWS V14.01,2013-09-22 00:09:00,
2013-09-21 20:11:00,73.8,63.0,29.80,SSE,154,3.6,3.6,69,0.00,,---,0.00,VWS V14.01,2013-09-22 00:11:00,
2013-09-21 20:12:00,73.9,63.1,29.80,SSW,195,4.0,4.9,69,0.00,,---,0.00,VWS V14.01,2013-09-22 00:12:00,
2013-09-21 20:14:00,73.9,63.1,29.80,SSW,195,4.0,4.0,69,0.00,,---,0.00,VWS V14.01,2013-09-22 00:14:00,
2013-09-21 20:16:00,73.9,63.1,29.80,SSW,208,0.0,0.0,69,0.00,,---,0.00,VWS V14.01,2013-09-22 00:16:00,
2013-09-21 20:17:00,73.9,63.1,29.80,SSE,150,0.0,0.0,69,0.00,,---,0.00,VWS V14.01,2013-09-22 00:17:00,
2013-09-21 20:19:00,73.9,63.1,29.80,SSE,165,2.2,2.7,69,0.00,,---,0.00,VWS V14.01,2013-09-22 00:19:00,
2013-09-21 20:21:00,73.9,62.7,29.80,South,179,0.0,0.0,68,0.00,,---,0.00,VWS V14.01,2013-09-22 00:21:00,
2013-09-21 20:23:00,73.9,62.7,29.80,South,180,0.0,0.0,68,0.00,,---,0.00,VWS V14.01,2013-09-22 00:23:00,
2013-09-21 20:24:00,73.9,62.7,29.80,SSW,203,0.0,0.0,68,0.00,,---,0.00,VWS V14.01,2013-09-22 00:24:00,
2013-09-21 20:26:00,73.9,62.7,29.80,SSE,167,0.0,3.1,68,0.00,,---,0.00,VWS V14.01,2013-09-22 00:26:00,
2013-09-21 20:28:00,74.1,62.5,29.80,SSW,195,2.7,2.7,67,0.00,,---,0.00,VWS V14.01,2013-09-22 00:28:00,
2013-09-21 20:29:00,74.1,62.5,29.80,SSW,195,2.7,2.7,67,0.00,,---,0.00,VWS V14.01,2013-09-22 00:29:00,
2013-09-21 20:31:00,74.1,62.5,29.80,SSE,152,0.0,0.0,67,0.00,,---,0.00,VWS V14.01,2013-09-22 00:31:00,
2013-09-21 20:34:00,74.1,62.5,29.80,SSE,153,0.0,0.0,67,0.00,,---,0.00,VWS V14.01,2013-09-22 00:34:00,
2013-09-21 20:36:00,74.1,62.0,29.80,SE,133,4.0,4.9,66,0.00,,---,0.00,VWS V14.01,2013-09-22 00:36:00,
2013-09-21 20:39:00,74.1,62.0,29.80,SSW,199,0.0,0.0,66,0.00,,---,0.00,VWS V14.01,2013-09-22 00:39:00,
2013-09-21 20:41:00,74.1,62.0,29.80,SSE,168,0.0,0.0,66,0.00,,---,0.00,VWS V14.01,2013-09-22 00:41:00,
2013-09-21 20:44:00,74.1,61.6,29.80,South,178,2.2,2.2,65,0.00,,---,0.00,VWS V14.01,2013-09-22 00:44:00,
2013-09-21 20:46:00,74.1,61.6,29.80,South,171,0.0,4.0,65,0.00,,---,0.00,VWS V14.01,2013-09-22 00:46:00,
2013-09-21 20:49:00,74.1,61.6,29.80,South,171,0.0,0.0,65,0.00,,---,0.00,VWS V14.01,2013-09-22 00:49:00,
2013-09-21 20:51:00,74.1,61.6,29.80,South,183,2.7,3.1,65,0.00,,---,0.00,VWS V14.01,2013-09-22 00:51:00,
2013-09-21 20:52:00,74.1,61.6,29.80,South,183,0.0,2.7,65,0.00,,---,0.00,VWS V14.01,2013-09-22 00:52:00,
2013-09-21 20:54:00,74.3,61.3,29.80,South,174,2.2,2.2,64,0.00,,---,0.00,VWS V14.01,2013-09-22 00:54:00,
2013-09-21 20:56:00,74.3,61.3,29.80,South,173,2.2,3.6,64,0.00,,---,0.00,VWS V14.01,2013-09-22 00:56:00,
2013-09-21 20:57:00,74.3,61.3,29.80,South,186,2.7,3.6,64,0.00,,---,0.00,VWS V14.01,2013-09-22 00:57:00,
2013-09-21 20:59:00,74.3,61.3,29.80,SSE,157,3.6,3.6,64,0.00,,---,0.00,VWS V14.01,2013-09-22 00:59:00,
2013-09-21 21:01:00,74.3,60.9,29.80,SSW,197,5.4,5.4,63,0.00,,---,0.00,VWS V14.01,2013-09-22 01:01:00,
2013-09-21 21:02:00,74.3,60.9,29.80,SSW,197,5.4,5.4,63,0.00,,---,0.00,VWS V14.01,2013-09-22 01:02:00,
2013-09-21 21:04:00,74.3,60.9,29.80,SSE,156,4.0,4.0,63,0.00,,---,0.00,VWS V14.01,2013-09-22 01:04:00,
2013-09-21 21:06:00,74.5,61.1,29.80,SSE,154,2.7,2.7,63,0.00,,---,0.00,VWS V14.01,2013-09-22 01:06:00,
2013-09-21 21:07:00,74.5,61.1,29.80,South,182,0.0,2.7,63,0.00,,---,0.00,VWS V14.01,2013-09-22 01:07:00,
2013-09-21 21:09:00,74.5,61.1,29.80,South,182,0.0,0.0,63,0.00,,---,0.00,VWS V14.01,2013-09-22 01:09:00,
2013-09-21 21:10:00,74.5,61.1,29.80,SSE,166,2.7,4.9,63,0.00,,---,0.00,VWS V14.01,2013-09-22 01:10:00,
2013-09-21 21:11:00,74.5,61.1,29.80,SE,145,2.7,4.0,63,0.00,,---,0.00,VWS V14.01,2013-09-22 01:11:00,
2013-09-21 21:12:00,74.5,61.1,29.80,SE,145,2.7,4.0,63,0.00,,---,0.00,VWS V14.01,2013-09-22 01:12:00,
2013-09-21 21:14:00,74.5,61.1,29.80,SSE,158,5.8,5.8,63,0.00,,---,0.00,VWS V14.01,2013-09-22 01:14:00,
2013-09-21 21:15:00,74.5,61.1,29.80,South,186,3.1,5.8,63,0.00,,---,0.00,VWS V14.01,2013-09-22 01:15:00,
2013-09-21 21:16:00,74.7,61.2,29.80,South,179,2.7,2.7,63,0.00,,---,0.00,VWS V14.01,2013-09-22 01:16:00,
2013-09-21 21:17:00,74.7,61.2,29.80,SSW,200,0.0,2.7,63,0.00,,---,0.00,VWS V14.01,2013-09-22 01:17:00,
2013-09-21 21:19:00,74.7,61.2,29.80,South,173,2.2,2.2,63,0.00,,---,0.00,VWS V14.01,2013-09-22 01:19:00,
2013-09-21 21:20:00,74.7,61.2,29.80,SSE,168,3.1,3.1,63,0.00,,---,0.00,VWS V14.01,2013-09-22 01:20:00,
2013-09-21 21:21:00,74.7,61.2,29.80,SSW,208,2.2,2.2,63,0.00,,---,0.00,VWS V14.01,2013-09-22 01:21:00,
2013-09-21 21:22:00,74.7,61.2,29.80,SSW,208,2.2,2.2,63,0.00,,---,0.00,VWS V14.01,2013-09-22 01:22:00,
2013-09-21 21:25:00,74.7,60.8,29.80,South,176,2.2,2.7,62,0.00,,---,0.00,VWS V14.01,2013-09-22 01:25:00,
2013-09-21 21:26:00,74.7,60.8,29.80,South,179,3.6,3.6,62,0.00,,---,0.00,VWS V14.01,2013-09-22 01:26:00,
2013-09-21 21:27:00,74.7,60.8,29.80,South,179,0.0,0.0,62,0.00,,---,0.00,VWS V14.01,2013-09-22 01:27:00,
2013-09-21 21:30:00,74.7,60.8,29.80,South,176,3.6,3.6,62,0.00,,---,0.00,VWS V14.01,2013-09-22 01:30:00,
2013-09-21 21:31:00,74.7,60.8,29.80,SSW,200,2.7,3.6,62,0.00,,---,0.00,VWS V14.01,2013-09-22 01:31:00,
2013-09-21 21:32:00,74.7,60.8,29.80,SSW,200,0.0,2.2,62,0.00,,---,0.00,VWS V14.01,2013-09-22 01:32:00,
2013-09-21 21:35:00,74.7,60.8,29.80,South,169,4.0,4.0,62,0.00,,---,0.00,VWS V14.01,2013-09-22 01:35:00,
2013-09-21 21:36:00,74.7,60.8,29.80,SSE,156,2.7,2.7,62,0.00,,---,0.00,VWS V14.01,2013-09-22 01:36:00,
2013-09-21 21:37:00,74.7,60.8,29.80,SSW,196,2.2,2.2,62,0.00,,---,0.00,VWS V14.01,2013-09-22 01:37:00,
2013-09-21 21:40:00,74.7,60.8,29.80,SSE,157,4.0,4.0,62,0.00,,---,0.00,VWS V14.01,2013-09-22 01:40:00,
2013-09-21 21:42:00,74.7,60.8,29.80,SSE,166,3.1,3.1,62,0.00,,---,0.00,VWS V14.01,2013-09-22 01:42:00,
2013-09-21 21:45:00,74.7,60.8,29.80,SSE,167,2.7,4.0,62,0.00,,---,0.00,VWS V14.01,2013-09-22 01:45:00,
2013-09-21 21:47:00,74.8,60.5,29.80,SE,145,4.0,4.0,61,0.00,,---,0.00,VWS V14.01,2013-09-22 01:47:00,
2013-09-21 21:50:00,74.8,60.5,29.80,South,182,3.6,4.0,61,0.00,,---,0.00,VWS V14.01,2013-09-22 01:50:00,
2013-09-21 21:51:00,74.8,60.5,29.80,South,172,4.0,4.0,61,0.00,,---,0.00,VWS V14.01,2013-09-22 01:51:00,
2013-09-21 21:52:00,74.8,60.5,29.80,SSW,196,0.0,0.0,61,0.00,,---,0.00,VWS V14.01,2013-09-22 01:52:00,
2013-09-21 21:55:00,74.8,60.5,29.80,South,173,3.6,4.9,61,0.00,,---,0.00,VWS V14.01,2013-09-22 01:55:00,
2013-09-21 21:56:00,74.8,60.0,29.80,SSE,164,3.1,3.6,60,0.00,,---,0.00,VWS V14.01,2013-09-22 01:56:00,
2013-09-21 21:57:00,74.8,60.0,29.80,South,190,4.0,4.0,60,0.00,,---,0.00,VWS V14.01,2013-09-22 01:57:00,
2013-09-21 22:00:00,74.8,60.0,29.80,South,170,4.0,4.0,60,0.00,,---,0.00,VWS V14.01,2013-09-22 02:00:00,
2013-09-21 22:01:00,74.8,60.0,29.80,South,184,2.2,4.0,60,0.00,,---,0.00,VWS V14.01,2013-09-22 02:01:00,
2013-09-21 22:02:00,74.8,60.0,29.80,South,184,2.2,2.2,60,0.00,,---,0.00,VWS V14.01,2013-09-22 02:02:00,
2013-09-21 22:05:00,74.8,60.0,29.80,South,189,2.7,4.0,60,0.00,,---,0.00,VWS V14.01,2013-09-22 02:05:00,
2013-09-21 22:06:00,74.8,60.0,29.80,South,172,2.7,2.7,60,0.00,,---,0.00,VWS V14.01,2013-09-22 02:06:00,
2013-09-21 22:07:00,75.0,59.7,29.80,South,182,3.6,3.6,59,0.00,,---,0.00,VWS V14.01,2013-09-22 02:07:00,
2013-09-21 22:08:00,75.0,59.7,29.80,South,177,3.6,3.6,59,0.00,,---,0.00,VWS V14.01,2013-09-22 02:08:00,
2013-09-21 22:10:00,75.0,59.7,29.80,SSE,163,4.0,4.0,59,0.00,,---,0.00,VWS V14.01,2013-09-22 02:10:00,
2013-09-21 22:11:00,75.0,59.7,29.80,South,185,5.4,5.4,59,0.00,,---,0.00,VWS V14.01,2013-09-22 02:11:00,
2013-09-21 22:12:00,75.0,59.7,29.80,South,185,0.0,0.0,59,0.00,,---,0.00,VWS V14.01,2013-09-22 02:12:00,
2013-09-21 22:13:00,75.0,59.7,29.80,South,185,0.0,0.0,59,0.00,,---,0.00,VWS V14.01,2013-09-22 02:13:00,
2013-09-21 22:15:00,75.0,59.7,29.80,SSE,160,2.7,2.7,59,0.00,,---,0.00,VWS V14.01,2013-09-22 02:15:00,
2013-09-21 22:16:00,75.0,59.3,29.80,SSE,160,0.0,0.0,58,0.00,,---,0.00,VWS V14.01,2013-09-22 02:16:00,
2013-09-21 22:17:00,75.0,59.3,29.80,SSE,160,0.0,0.0,58,0.00,,---,0.00,VWS V14.01,2013-09-22 02:17:00,
2013-09-21 22:18:00,75.0,59.3,29.80,SSE,160,0.0,0.0,58,0.00,,---,0.00,VWS V14.01,2013-09-22 02:18:00,
2013-09-21 22:20:00,75.2,58.9,29.80,SSW,193,4.0,5.4,57,0.00,,---,0.00,VWS V14.01,2013-09-22 02:20:00,
2013-09-21 22:21:00,75.2,58.9,29.80,SSE,168,3.6,3.6,57,0.00,,---,0.00,VWS V14.01,2013-09-22 02:21:00,
2013-09-21 22:23:00,75.2,58.9,29.80,South,183,2.7,4.0,57,0.00,,---,0.00,VWS V14.01,2013-09-22 02:23:00,
2013-09-21 22:25:00,75.2,58.9,29.80,SSW,195,0.0,0.0,57,0.00,,---,0.00,VWS V14.01,2013-09-22 02:25:00,
2013-09-21 22:26:00,75.2,58.9,29.80,SSE,151,0.0,0.0,57,0.00,,---,0.00,VWS V14.01,2013-09-22 02:26:00,
2013-09-21 22:28:00,75.2,58.9,29.77,South,186,0.0,0.0,57,0.00,,---,0.00,VWS V14.01,2013-09-22 02:28:00,
2013-09-21 22:30:00,75.2,58.4,29.77,SSW,204,0.0,2.2,56,0.00,,---,0.00,VWS V14.01,2013-09-22 02:30:00,
2013-09-21 22:31:00,75.2,58.4,29.77,SSW,204,0.0,2.2,56,0.00,,---,0.00,VWS V14.01,2013-09-22 02:31:00,
2013-09-21 22:33:00,75.2,58.4,29.77,South,183,2.7,5.4,56,0.00,,---,0.00,VWS V14.01,2013-09-22 02:33:00,
2013-09-21 22:35:00,75.2,58.4,29.77,SSE,165,2.7,3.1,56,0.00,,---,0.00,VWS V14.01,2013-09-22 02:35:00,
2013-09-21 22:36:00,75.2,58.4,29.77,SSE,163,0.0,3.1,56,0.00,,---,0.00,VWS V14.01,2013-09-22 02:36:00,
2013-09-21 22:38:00,75.2,58.4,29.77,SE,138,3.6,3.6,56,0.00,,---,0.00,VWS V14.01,2013-09-22 02:38:00,
2013-09-21 22:40:00,75.2,57.9,29.77,SSW,202,0.0,0.0,55,0.00,,---,0.00,VWS V14.01,2013-09-22 02:40:00,
2013-09-21 22:41:00,75.2,57.9,29.77,SSW,202,0.0,0.0,55,0.00,,---,0.00,VWS V14.01,2013-09-22 02:41:00,
2013-09-21 22:43:00,75.2,57.9,29.77,SSE,153,3.1,3.1,55,0.00,,---,0.00,VWS V14.01,2013-09-22 02:43:00,
2013-09-21 22:46:00,75.2,57.9,29.77,South,185,4.0,4.0,55,0.00,,---,0.00,VWS V14.01,2013-09-22 02:46:00,
2013-09-21 22:48:00,75.4,57.6,29.77,South,179,3.6,3.6,54,0.00,,---,0.00,VWS V14.01,2013-09-22 02:48:00,
2013-09-21 22:51:00,75.4,57.6,29.77,South,182,0.0,0.0,54,0.00,,---,0.00,VWS V14.01,2013-09-22 02:51:00,
2013-09-21 22:52:00,75.4,57.1,29.77,South,180,0.0,0.0,53,0.00,,---,0.00,VWS V14.01,2013-09-22 02:52:00,
2013-09-21 22:53:00,75.4,57.1,29.77,SSE,160,0.0,0.0,53,0.00,,---,0.00,VWS V14.01,2013-09-22 02:53:00,
2013-09-21 22:54:00,75.4,57.1,29.77,SSE,160,0.0,0.0,53,0.00,,---,0.00,VWS V14.01,2013-09-22 02:54:00,
2013-09-21 22:56:00,75.4,57.1,29.77,South,170,4.0,4.0,53,0.00,,---,0.00,VWS V14.01,2013-09-22 02:56:00,
2013-09-21 22:57:00,75.4,57.1,29.77,South,170,4.0,4.0,53,0.00,,---,0.00,VWS V14.01,2013-09-22 02:57:00,
2013-09-21 22:58:00,75.4,57.1,29.77,South,180,0.0,0.0,53,0.00,,---,0.00,VWS V14.01,2013-09-22 02:58:00,
2013-09-21 22:59:00,75.4,57.1,29.77,South,180,0.0,0.0,53,0.00,,---,0.00,VWS V14.01,2013-09-22 02:59:00,
2013-09-21 23:01:00,75.4,56.5,29.77,South,180,0.0,0.0,52,0.00,,---,0.00,VWS V14.01,2013-09-22 03:01:00,
2013-09-21 23:02:00,75.4,56.5,29.77,SSE,156,3.1,3.1,52,0.00,,---,0.00,VWS V14.01,2013-09-22 03:02:00,
2013-09-21 23:03:00,75.4,56.5,29.77,South,189,0.0,0.0,52,0.00,,---,0.00,VWS V14.01,2013-09-22 03:03:00,
2013-09-21 23:04:00,75.4,56.5,29.77,South,189,0.0,0.0,52,0.00,,---,0.00,VWS V14.01,2013-09-22 03:04:00,
2013-09-21 23:06:00,75.2,56.4,29.77,SSW,192,0.0,0.0,52,0.00,,---,0.00,VWS V14.01,2013-09-22 03:06:00,
2013-09-21 23:07:00,75.2,56.4,29.77,SSE,159,0.0,0.0,52,0.00,,---,0.00,VWS V14.01,2013-09-22 03:07:00,
2013-09-21 23:08:00,75.4,56.5,29.77,South,188,2.7,2.7,52,0.00,,---,0.00,VWS V14.01,2013-09-22 03:08:00,
2013-09-21 23:09:00,75.4,56.5,29.77,SSE,163,2.7,5.8,52,0.00,,---,0.00,VWS V14.01,2013-09-22 03:09:00,
2013-09-21 23:11:00,75.4,56.5,29.77,South,171,4.0,4.0,52,0.00,,---,0.00,VWS V14.01,2013-09-22 03:11:00,
2013-09-21 23:12:00,75.4,56.5,29.80,SSW,204,0.0,4.0,52,0.00,,---,0.00,VWS V14.01,2013-09-22 03:12:00,
2013-09-21 23:13:00,75.4,56.5,29.80,SSW,204,0.0,0.0,52,0.00,,---,0.00,VWS V14.01,2013-09-22 03:13:00,
2013-09-21 23:14:00,75.4,56.5,29.80,South,169,0.0,0.0,52,0.00,,---,0.00,VWS V14.01,2013-09-22 03:14:00,
2013-09-21 23:16:00,75.4,56.0,29.80,South,188,2.2,2.2,51,0.00,,---,0.00,VWS V14.01,2013-09-22 03:16:00,
2013-09-21 23:17:00,75.4,56.0,29.80,SE,131,0.0,2.2,51,0.00,,---,0.00,VWS V14.01,2013-09-22 03:17:00,
2013-09-21 23:18:00,75.4,56.0,29.80,South,170,2.2,2.2,51,0.00,,---,0.00,VWS V14.01,2013-09-22 03:18:00,
2013-09-21 23:19:00,75.4,56.0,29.80,South,169,0.0,2.2,51,0.00,,---,0.00,VWS V14.01,2013-09-22 03:19:00,
2013-09-21 23:21:00,75.4,56.0,29.80,SSE,150,2.7,4.0,51,0.00,,---,0.00,VWS V14.01,2013-09-22 03:21:00,
2013-09-21 23:22:00,75.4,56.0,29.80,SSW,192,0.0,2.2,51,0.00,,---,0.00,VWS V14.01,2013-09-22 03:22:00,
2013-09-21 23:23:00,75.4,56.0,29.77,South,180,3.1,4.9,51,0.00,,---,0.00,VWS V14.01,2013-09-22 03:23:00,
2013-09-21 23:24:00,75.4,56.0,29.77,South,172,0.0,3.1,51,0.00,,---,0.00,VWS V14.01,2013-09-22 03:24:00,
2013-09-21 23:26:00,75.4,56.0,29.77,South,172,4.9,4.9,51,0.00,,---,0.00,VWS V14.01,2013-09-22 03:26:00,
2013-09-21 23:27:00,75.4,56.0,29.77,SSW,205,0.0,4.9,51,0.00,,---,0.00,VWS V14.01,2013-09-22 03:27:00,
2013-09-21 23:28:00,75.4,55.5,29.77,SSE,159,2.2,3.6,50,0.00,,---,0.00,VWS V14.01,2013-09-22 03:28:00,
2013-09-21 23:29:00,75.4,55.5,29.77,SSE,159,2.7,2.7,50,0.00,,---,0.00,VWS V14.01,2013-09-22 03:29:00,
2013-09-21 23:31:00,75.4,55.5,29.77,South,183,2.7,2.7,50,0.00,,---,0.00,VWS V14.01,2013-09-22 03:31:00,
2013-09-21 23:32:00,75.4,55.5,29.77,South,169,6.3,6.3,50,0.00,,---,0.00,VWS V14.01,2013-09-22 03:32:00,
2013-09-21 23:33:00,75.4,55.5,29.77,South,181,4.0,4.0,50,0.00,,---,0.00,VWS V14.01,2013-09-22 03:33:00,
2013-09-21 23:35:00,75.4,55.5,29.77,SSW,207,0.0,4.0,50,0.00,,---,0.00,VWS V14.01,2013-09-22 03:35:00,
2013-09-21 23:36:00,75.4,55.5,29.77,SSW,197,0.0,2.7,50,0.00,,---,0.00,VWS V14.01,2013-09-22 03:36:00,
2013-09-21 23:37:00,75.4,55.5,29.77,SSW,197,0.0,0.0,50,0.00,,---,0.00,VWS V14.01,2013-09-22 03:37:00,
2013-09-21 23:38:00,75.4,55.5,29.77,SSW,197,0.0,0.0,50,0.00,,---,0.00,VWS V14.01,2013-09-22 03:38:00,
2013-09-21 23:40:00,75.4,55.5,29.77,South,185,3.6,3.6,50,0.00,,---,0.00,VWS V14.01,2013-09-22 03:40:00,
2013-09-21 23:41:00,75.4,55.5,29.77,SSE,158,2.2,2.2,50,0.00,,---,0.00,VWS V14.01,2013-09-22 03:41:00,
2013-09-21 23:42:00,75.4,55.5,29.77,SSE,158,0.0,0.0,50,0.00,,---,0.00,VWS V14.01,2013-09-22 03:42:00,
2013-09-21 23:43:00,75.4,56.0,29.77,SSE,166,0.0,0.0,51,0.00,,---,0.00,VWS V14.01,2013-09-22 03:43:00,
2013-09-21 23:45:00,75.2,55.8,29.77,South,171,2.7,2.7,51,0.00,,---,0.00,VWS V14.01,2013-09-22 03:45:00,
2013-09-21 23:46:00,75.2,55.8,29.77,South,182,2.2,3.6,51,0.00,,---,0.00,VWS V14.01,2013-09-22 03:46:00,
2013-09-21 23:47:00,75.2,55.8,29.77,South,182,2.2,2.2,51,0.00,,---,0.00,VWS V14.01,2013-09-22 03:47:00,
2013-09-21 23:49:00,75.2,55.8,29.77,South,187,3.1,4.9,51,0.00,,---,0.00,VWS V14.01,2013-09-22 03:49:00,
2013-09-21 23:50:00,75.2,55.8,29.77,SSE,158,5.4,5.4,51,0.00,,---,0.00,VWS V14.01,2013-09-22 03:50:00,
2013-09-21 23:51:00,75.2,55.8,29.77,South,189,0.0,0.0,51,0.00,,---,0.00,VWS V14.01,2013-09-22 03:51:00,
2013-09-21 23:52:00,75.2,55.8,29.77,South,189,0.0,0.0,51,0.00,,---,0.00,VWS V14.01,2013-09-22 03:52:00,
2013-09-21 23:54:00,75.0,55.7,29.77,SSE,154,3.1,3.6,51,0.00,,---,0.00,VWS V14.01,2013-09-22 03:54:00,
2013-09-21 23:55:00,75.0,55.7,29.77,South,172,2.7,2.7,51,0.00,,---,0.00,VWS V14.01,2013-09-22 03:55:00,
2013-09-21 23:56:00,75.0,56.2,29.77,SE,137,4.0,4.0,52,0.00,,---,0.00,VWS V14.01,2013-09-22 03:56:00,
2013-09-21 23:57:00,75.0,56.2,29.77,South,184,2.7,2.7,52,0.00,,---,0.00,VWS V14.01,2013-09-22 03:57:00,
2013-09-21 23:59:00,75.0,56.2,29.77,South,186,2.7,3.6,52,0.00,,---,0.00,VWS V14.01,2013-09-22 03:59:00,